<?xml version="1.0"?>
<gpx xmlns="http://www.topografix.com/GPX/1/1" xmlns:xsi="http://www.w3.org/2001/XMLSchema-instance" xmlns:wptx1="http://www.garmin.com/xmlschemas/WaypointExtension/v1" xmlns:gpxtrx="http://www.garmin.com/xmlschemas/GpxExtensions/v3" xmlns:gpxtpx="http://www.garmin.com/xmlschemas/TrackPointExtension/v1" xmlns:gpxx="http://www.garmin.com/xmlschemas/GpxExtensions/v3" xmlns:trp="http://www.garmin.com/xmlschemas/TripExtensions/v1" xmlns:adv="http://www.garmin.com/xmlschemas/AdventuresExtensions/v1" xmlns:prs="http://www.garmin.com/xmlschemas/PressureExtension/v1" xmlns:tmd="http://www.garmin.com/xmlschemas/TripMetaDataExtensions/v1" xmlns:vptm="http://www.garmin.com/xmlschemas/ViaPointTransportationModeExtensions/v1" xmlns:ctx="http://www.garmin.com/xmlschemas/CreationTimeExtension/v1" xmlns:gpxacc="http://www.garmin.com/xmlschemas/AccelerationExtension/v1" xmlns:gpxpx="http://www.garmin.com/xmlschemas/PowerExtension/v1" xmlns:vidx1="http://www.garmin.com/xmlschemas/VideoExtension/v1" creator="Garmin Desktop App" version="1.1" xsi:schemaLocation="http://www.topografix.com/GPX/1/1 http://www.topografix.com/GPX/1/1/gpx.xsd http://www.garmin.com/xmlschemas/WaypointExtension/v1 http://www8.garmin.com/xmlschemas/WaypointExtensionv1.xsd http://www.garmin.com/xmlschemas/TrackPointExtension/v1 http://www.garmin.com/xmlschemas/TrackPointExtensionv1.xsd http://www.garmin.com/xmlschemas/GpxExtensions/v3 http://www8.garmin.com/xmlschemas/GpxExtensionsv3.xsd http://www.garmin.com/xmlschemas/ActivityExtension/v1 http://www8.garmin.com/xmlschemas/ActivityExtensionv1.xsd http://www.garmin.com/xmlschemas/AdventuresExtensions/v1 http://www8.garmin.com/xmlschemas/AdventuresExtensionv1.xsd http://www.garmin.com/xmlschemas/PressureExtension/v1 http://www.garmin.com/xmlschemas/PressureExtensionv1.xsd http://www.garmin.com/xmlschemas/TripExtensions/v1 http://www.garmin.com/xmlschemas/TripExtensionsv1.xsd http://www.garmin.com/xmlschemas/TripMetaDataExtensions/v1 http://www.garmin.com/xmlschemas/TripMetaDataExtensionsv1.xsd http://www.garmin.com/xmlschemas/ViaPointTransportationModeExtensions/v1 http://www.garmin.com/xmlschemas/ViaPointTransportationModeExtensionsv1.xsd http://www.garmin.com/xmlschemas/CreationTimeExtension/v1 http://www.garmin.com/xmlschemas/CreationTimeExtensionsv1.xsd http://www.garmin.com/xmlschemas/AccelerationExtension/v1 http://www.garmin.com/xmlschemas/AccelerationExtensionv1.xsd http://www.garmin.com/xmlschemas/PowerExtension/v1 http://www.garmin.com/xmlschemas/PowerExtensionv1.xsd http://www.garmin.com/xmlschemas/VideoExtension/v1 http://www.garmin.com/xmlschemas/VideoExtensionv1.xsd">

  <metadata>
    <link href="http://www.garmin.com">
      <text>Garmin International</text>
    </link>
    <time>2017-10-18T10:38:04Z</time>
    <bounds maxlat="47.755666086450219" maxlon="13.001153161749244" minlat="47.593004358932376" minlon="11.737290909513831"/>
  </metadata>

  <trk>
    <name>Deutsche Alpenstrass östlicher Abschnitt</name>
    <extensions>
      <gpxx:TrackExtension>
        <gpxx:DisplayColor>Red</gpxx:DisplayColor>
      </gpxx:TrackExtension>
    </extensions>
    <trkseg>
      <trkpt lat="47.593004358932376" lon="12.987334253266454">
        <ele>542.699917938722479</ele>
        <time>2017-07-22T08:06:32Z</time>
      </trkpt>
      <trkpt lat="47.594965053722262" lon="12.989212386310101"/>
      <trkpt lat="47.598964227363467" lon="12.989626117050648"/>
      <trkpt lat="47.60204030200839" lon="12.99035333096981"/>
      <trkpt lat="47.604646487161517" lon="12.992328191176057"/>
      <trkpt lat="47.607304388657212" lon="12.995185414329171"/>
      <trkpt lat="47.610933165997267" lon="12.998401550576091"/>
      <trkpt lat="47.614756654947996" lon="13.00046693533659"/>
      <trkpt lat="47.618679720908403" lon="12.999820522964001"/>
      <trkpt lat="47.621413981541991" lon="13.000786956399679"/>
      <trkpt lat="47.623798213899136" lon="13.001148886978626"/>
      <trkpt lat="47.625254737213254" lon="13.001153161749244">
        <ele>545.846231287742626</ele>
        <time>2017-07-22T08:07:59Z</time>
      </trkpt>
      <trkpt lat="47.626064093783498" lon="12.999967960640788">
        <ele>547.243788738604962</ele>
        <time>2017-07-22T08:08:56Z</time>
      </trkpt>
      <trkpt lat="47.625780366361141" lon="12.997390944510698">
        <ele>549.520131856290618</ele>
        <time>2017-07-22T08:09:16Z</time>
      </trkpt>
      <trkpt lat="47.624835558235645" lon="12.995123388245702">
        <ele>553.60971305340388</ele>
        <time>2017-07-22T08:09:30Z</time>
      </trkpt>
      <trkpt lat="47.623946825042367" lon="12.992681907489896">
        <ele>555.82036465025601</ele>
        <time>2017-07-22T08:09:44Z</time>
      </trkpt>
      <trkpt lat="47.624659119173884" lon="12.990078404545784">
        <ele>559.078338341232097</ele>
        <time>2017-07-22T08:09:56Z</time>
      </trkpt>
      <trkpt lat="47.625921769067645" lon="12.988019473850727">
        <ele>560.391547749329902</ele>
        <time>2017-07-22T08:10:08Z</time>
      </trkpt>
      <trkpt lat="47.625564867630601" lon="12.985476991161704">
        <ele>562.252665384150191</ele>
        <time>2017-07-22T08:10:22Z</time>
      </trkpt>
      <trkpt lat="47.62404422275722" lon="12.983955089002848">
        <ele>564.531734511429136</ele>
        <time>2017-07-22T08:10:32Z</time>
      </trkpt>
      <trkpt lat="47.622472364455462" lon="12.982496470212936">
        <ele>566.246927389949974</ele>
        <time>2017-07-22T08:10:42Z</time>
      </trkpt>
      <trkpt lat="47.621646663174033" lon="12.979745613411069">
        <ele>566.909043316313841</ele>
        <time>2017-07-22T08:10:53Z</time>
      </trkpt>
      <trkpt lat="47.620461545884609" lon="12.97738753259182">
        <ele>565.605330447486494</ele>
        <time>2017-07-22T08:11:06Z</time>
      </trkpt>
      <trkpt lat="47.619639448821545" lon="12.97536070458591">
        <ele>568.254638642608938</ele>
        <time>2017-07-22T08:11:23Z</time>
      </trkpt>
      <trkpt lat="47.618838474154472" lon="12.97288628295064">
        <ele>573.181031975077303</ele>
        <time>2017-07-22T08:11:33Z</time>
      </trkpt>
      <trkpt lat="47.618419211357832" lon="12.970066694542766">
        <ele>571.952673481961028</ele>
        <time>2017-07-22T08:11:46Z</time>
      </trkpt>
      <trkpt lat="47.61746090836823" lon="12.967786313965917">
        <ele>573.482318862411148</ele>
        <time>2017-07-22T08:12:00Z</time>
      </trkpt>
      <trkpt lat="47.617539614439011" lon="12.965086838230491">
        <ele>577.18906033977737</ele>
        <time>2017-07-22T08:12:12Z</time>
      </trkpt>
      <trkpt lat="47.616914575919509" lon="12.962559945881367">
        <ele>579.973826494441255</ele>
        <time>2017-07-22T08:12:24Z</time>
      </trkpt>
      <trkpt lat="47.6160585321486" lon="12.959860302507877">
        <ele>583.837799264104433</ele>
        <time>2017-07-22T08:12:36Z</time>
      </trkpt>
      <trkpt lat="47.615304160863161" lon="12.957193767651916">
        <ele>584.035589268431181</ele>
        <time>2017-07-22T08:12:49Z</time>
      </trkpt>
      <trkpt lat="47.61496058665216" lon="12.954342244192958">
        <ele>586.137314604429321</ele>
        <time>2017-07-22T08:13:03Z</time>
      </trkpt>
      <trkpt lat="47.614170257002115" lon="12.951617203652859">
        <ele>588.359598986664878</ele>
        <time>2017-07-22T08:13:17Z</time>
      </trkpt>
      <trkpt lat="47.613935563713312" lon="12.948817480355501">
        <ele>594.542857888374215</ele>
        <time>2017-07-22T08:13:29Z</time>
      </trkpt>
      <trkpt lat="47.613320332020521" lon="12.94609964825213">
        <ele>597.157091015139031</ele>
        <time>2017-07-22T08:13:40Z</time>
      </trkpt>
      <trkpt lat="47.611614027991891" lon="12.944527957588434">
        <ele>597.603755054473595</ele>
        <time>2017-07-22T08:13:51Z</time>
      </trkpt>
      <trkpt lat="47.610329166054726" lon="12.942271213978529">
        <ele>601.615265696867255</ele>
        <time>2017-07-22T08:14:03Z</time>
      </trkpt>
      <trkpt lat="47.609165674075484" lon="12.940104575827718">
        <ele>603.111651159949815</ele>
        <time>2017-07-22T08:14:15Z</time>
      </trkpt>
      <trkpt lat="47.607861869037151" lon="12.938017649576068">
        <ele>606.163235996596768</ele>
        <time>2017-07-22T08:14:27Z</time>
      </trkpt>
      <trkpt lat="47.606464857235551" lon="12.936262981966138">
        <ele>606.81147743986628</ele>
        <time>2017-07-22T08:14:40Z</time>
      </trkpt>
      <trkpt lat="47.604932896792889" lon="12.934882314875722">
        <ele>610.685763114960082</ele>
        <time>2017-07-22T08:15:56Z</time>
      </trkpt>
      <trkpt lat="47.603735122829676" lon="12.9324537422508">
        <ele>618.666148146417072</ele>
        <time>2017-07-22T08:16:13Z</time>
      </trkpt>
      <trkpt lat="47.602994749322534" lon="12.929878737777472">
        <ele>625.770929770841576</ele>
        <time>2017-07-22T08:16:28Z</time>
      </trkpt>
      <trkpt lat="47.602772377431393" lon="12.927465168759227">
        <ele>629.618536874639403</ele>
        <time>2017-07-22T08:16:42Z</time>
      </trkpt>
      <trkpt lat="47.603261712938547" lon="12.92471632361412">
        <ele>632.369894096965822</ele>
        <time>2017-07-22T08:16:57Z</time>
      </trkpt>
      <trkpt lat="47.603738643229008" lon="12.921940321102738">
        <ele>636.128578323232091</ele>
        <time>2017-07-22T08:17:11Z</time>
      </trkpt>
      <trkpt lat="47.604438532143831" lon="12.919274037703872">
        <ele>639.704317302914546</ele>
        <time>2017-07-22T08:17:23Z</time>
      </trkpt>
      <trkpt lat="47.604694347828627" lon="12.916300222277641">
        <ele>643.424913845315245</ele>
        <time>2017-07-22T08:17:35Z</time>
      </trkpt>
      <trkpt lat="47.604948235675693" lon="12.913330597802997">
        <ele>646.577390433060373</ele>
        <time>2017-07-22T08:17:47Z</time>
      </trkpt>
      <trkpt lat="47.605721298605204" lon="12.910748468711972">
        <ele>651.985254977112163</ele>
        <time>2017-07-22T08:18:00Z</time>
      </trkpt>
      <trkpt lat="47.606576336547732" lon="12.908010184764862">
        <ele>662.252336642416367</ele>
        <time>2017-07-22T08:18:13Z</time>
      </trkpt>
      <trkpt lat="47.607729686424136" lon="12.905650762841105">
        <ele>657.915918550058791</ele>
        <time>2017-07-22T08:18:23Z</time>
      </trkpt>
      <trkpt lat="47.608842216432095" lon="12.903400473296642">
        <ele>688.639482543780673</ele>
        <time>2017-07-22T08:18:33Z</time>
      </trkpt>
      <trkpt lat="47.609732961282134" lon="12.901124451309443">
        <ele>687.666634647597334</ele>
        <time>2017-07-22T08:18:47Z</time>
      </trkpt>
      <trkpt lat="47.609607400372624" lon="12.903873799368739">
        <ele>702.266464404177668</ele>
        <time>2017-07-22T08:19:02Z</time>
      </trkpt>
      <trkpt lat="47.609184868633747" lon="12.906468752771616">
        <ele>725.674307530094893</ele>
        <time>2017-07-22T08:19:21Z</time>
      </trkpt>
      <trkpt lat="47.609040951356292" lon="12.909253807738423">
        <ele>749.466109986510673</ele>
        <time>2017-07-22T08:19:39Z</time>
      </trkpt>
      <trkpt lat="47.609515869989991" lon="12.910385448485613">
        <ele>766.576033072106952</ele>
        <time>2017-07-22T08:19:57Z</time>
      </trkpt>
      <trkpt lat="47.609896827489138" lon="12.907903315499425">
        <ele>780.281204439643261</ele>
        <time>2017-07-22T08:20:12Z</time>
      </trkpt>
      <trkpt lat="47.611304065212607" lon="12.905818903818727">
        <ele>793.272694548766708</ele>
        <time>2017-07-22T08:20:27Z</time>
      </trkpt>
      <trkpt lat="47.612591106444597" lon="12.903467109426856">
        <ele>796.196938019288609</ele>
        <time>2017-07-22T08:20:42Z</time>
      </trkpt>
      <trkpt lat="47.613184042274952" lon="12.900926303118467">
        <ele>796.055323637271954</ele>
        <time>2017-07-22T08:20:55Z</time>
      </trkpt>
      <trkpt lat="47.61443093419075" lon="12.899180855602026">
        <ele>799.582823244826386</ele>
        <time>2017-07-22T08:21:09Z</time>
      </trkpt>
      <trkpt lat="47.614538138732314" lon="12.897353349253535">
        <ele>808.979787653577091</ele>
        <time>2017-07-22T08:21:25Z</time>
      </trkpt>
      <trkpt lat="47.613853337243199" lon="12.894795695319772">
        <ele>810.084479340976827</ele>
        <time>2017-07-22T08:21:39Z</time>
      </trkpt>
      <trkpt lat="47.614268660545349" lon="12.891980465501547">
        <ele>817.033724012877883</ele>
        <time>2017-07-22T08:21:54Z</time>
      </trkpt>
      <trkpt lat="47.615034766495228" lon="12.889267578721046">
        <ele>821.40177077166436</ele>
        <time>2017-07-22T08:22:10Z</time>
      </trkpt>
      <trkpt lat="47.615761393681169" lon="12.886651754379272">
        <ele>828.765048350419193</ele>
        <time>2017-07-22T08:22:22Z</time>
      </trkpt>
      <trkpt lat="47.616297667846084" lon="12.883886145427823">
        <ele>824.939620571951082</ele>
        <time>2017-07-22T08:22:35Z</time>
      </trkpt>
      <trkpt lat="47.617737175896764" lon="12.88211178034544">
        <ele>834.015235170377309</ele>
        <time>2017-07-22T08:22:47Z</time>
      </trkpt>
      <trkpt lat="47.619086829945445" lon="12.880186457186937">
        <ele>841.837606907601526</ele>
        <time>2017-07-22T08:22:58Z</time>
      </trkpt>
      <trkpt lat="47.620611246675253" lon="12.878443608060479">
        <ele>848.081179951232457</ele>
        <time>2017-07-22T08:23:12Z</time>
      </trkpt>
      <trkpt lat="47.622369267046452" lon="12.879295377060771">
        <ele>862.58699689384332</ele>
        <time>2017-07-22T08:23:26Z</time>
      </trkpt>
      <trkpt lat="47.624194007366896" lon="12.879690499976277">
        <ele>872.892283536414311</ele>
        <time>2017-07-22T08:23:38Z</time>
      </trkpt>
      <trkpt lat="47.625963762402534" lon="12.878898493945599">
        <ele>875.697991553574866</ele>
        <time>2017-07-22T08:23:50Z</time>
      </trkpt>
      <trkpt lat="47.627571914345026" lon="12.877233345061541">
        <ele>874.428705442446585</ele>
        <time>2017-07-22T08:24:02Z</time>
      </trkpt>
      <trkpt lat="47.628629375249147" lon="12.874932261183858">
        <ele>877.884960627982878</ele>
        <time>2017-07-22T08:24:14Z</time>
      </trkpt>
      <trkpt lat="47.629621289670467" lon="12.872295649722219">
        <ele>876.878062064606638</ele>
        <time>2017-07-22T08:24:26Z</time>
      </trkpt>
      <trkpt lat="47.630983432754874" lon="12.8703832346946">
        <ele>873.983359502151416</ele>
        <time>2017-07-22T08:24:39Z</time>
      </trkpt>
      <trkpt lat="47.631936119869351" lon="12.86799724213779">
        <ele>876.392111517976218</ele>
        <time>2017-07-22T08:24:50Z</time>
      </trkpt>
      <trkpt lat="47.63290498405695" lon="12.865689536556602">
        <ele>875.865195127600714</ele>
        <time>2017-07-22T08:25:00Z</time>
      </trkpt>
      <trkpt lat="47.633957248181105" lon="12.863189047202468">
        <ele>873.247562032362339</ele>
        <time>2017-07-22T08:25:12Z</time>
      </trkpt>
      <trkpt lat="47.635020408779383" lon="12.860546987503767">
        <ele>873.295099769694616</ele>
        <time>2017-07-22T08:25:24Z</time>
      </trkpt>
      <trkpt lat="47.635944681242108" lon="12.858052784577012">
        <ele>870.119475445096441</ele>
        <time>2017-07-22T08:25:36Z</time>
      </trkpt>
      <trkpt lat="47.636870378628373" lon="12.855473756790161">
        <ele>867.103803152407295</ele>
        <time>2017-07-22T08:25:49Z</time>
      </trkpt>
      <trkpt lat="47.638464700430632" lon="12.85373711027205">
        <ele>857.40472555708277</ele>
        <time>2017-07-22T08:26:02Z</time>
      </trkpt>
      <trkpt lat="47.640342162922025" lon="12.853323882445693">
        <ele>844.565821298719925</ele>
        <time>2017-07-22T08:26:14Z</time>
      </trkpt>
      <trkpt lat="47.64221141114831" lon="12.852191068232059">
        <ele>835.632084863769705</ele>
        <time>2017-07-22T08:26:26Z</time>
      </trkpt>
      <trkpt lat="47.644083173945546" lon="12.851553540676832">
        <ele>823.574793243929321</ele>
        <time>2017-07-22T08:26:35Z</time>
      </trkpt>
      <trkpt lat="47.645150860771537" lon="12.851140899583697">
        <ele>825.512445934135712</ele>
        <time>2017-07-22T08:26:40Z</time>
      </trkpt>
      <trkpt lat="47.647062605246902" lon="12.850563721731305">
        <ele>794.155043608372125</ele>
        <time>2017-07-22T08:26:50Z</time>
      </trkpt>
      <trkpt lat="47.649030424654484" lon="12.850134903565049">
        <ele>788.933288035839269</ele>
        <time>2017-07-22T08:27:02Z</time>
      </trkpt>
      <trkpt lat="47.650928506627679" lon="12.849675742909312">
        <ele>761.413300398516753</ele>
        <time>2017-07-22T08:27:13Z</time>
      </trkpt>
      <trkpt lat="47.652815692126751" lon="12.849225969985127">
        <ele>743.812342901114107</ele>
        <time>2017-07-22T08:27:25Z</time>
      </trkpt>
      <trkpt lat="47.65463188290596" lon="12.849768530577421">
        <ele>737.682694527062267</ele>
        <time>2017-07-22T08:27:40Z</time>
      </trkpt>
      <trkpt lat="47.656477242708206" lon="12.849394949153066">
        <ele>733.360043556918981</ele>
        <time>2017-07-22T08:27:54Z</time>
      </trkpt>
      <trkpt lat="47.658233670517802" lon="12.848287615925074">
        <ele>721.512601191137605</ele>
        <time>2017-07-22T08:28:06Z</time>
      </trkpt>
      <trkpt lat="47.659868309274316" lon="12.846967969089746">
        <ele>708.584722332240972</ele>
        <time>2017-07-22T08:28:16Z</time>
      </trkpt>
      <trkpt lat="47.6616823207587" lon="12.845564670860767">
        <ele>700.445841467197965</ele>
        <time>2017-07-22T08:28:28Z</time>
      </trkpt>
      <trkpt lat="47.663136916235089" lon="12.843512194231153">
        <ele>663.645386186414612</ele>
        <time>2017-07-22T08:28:41Z</time>
      </trkpt>
      <trkpt lat="47.664437871426344" lon="12.841274058446288">
        <ele>652.335793512231362</ele>
        <time>2017-07-22T08:28:55Z</time>
      </trkpt>
      <trkpt lat="47.665597507730126" lon="12.838981440290809">
        <ele>635.655681524702004</ele>
        <time>2017-07-22T08:29:08Z</time>
      </trkpt>
      <trkpt lat="47.666599564254284" lon="12.83656326122582">
        <ele>618.320837065201204</ele>
        <time>2017-07-22T08:29:23Z</time>
      </trkpt>
      <trkpt lat="47.668068911880255" lon="12.83499525859952">
        <ele>615.073319647094877</ele>
        <time>2017-07-22T08:29:38Z</time>
      </trkpt>
      <trkpt lat="47.669021096080542" lon="12.832414135336876">
        <ele>612.082915593726852</ele>
        <time>2017-07-22T08:29:52Z</time>
      </trkpt>
      <trkpt lat="47.670502262189984" lon="12.831083089113235">
        <ele>611.209263672970906</ele>
        <time>2017-07-22T08:30:06Z</time>
      </trkpt>
      <trkpt lat="47.671987200155854" lon="12.829368570819497">
        <ele>607.666216380859055</ele>
        <time>2017-07-22T08:30:22Z</time>
      </trkpt>
      <trkpt lat="47.673195116221905" lon="12.827317519113421">
        <ele>593.860258429455143</ele>
        <time>2017-07-22T08:30:39Z</time>
      </trkpt>
      <trkpt lat="47.674602018669248" lon="12.827252391725779">
        <ele>579.111468400799822</ele>
        <time>2017-07-22T08:30:56Z</time>
      </trkpt>
      <trkpt lat="47.676272112876177" lon="12.827368983998895">
        <ele>559.378764858613977</ele>
        <time>2017-07-22T08:31:12Z</time>
      </trkpt>
      <trkpt lat="47.676753150299191" lon="12.824482508003712">
        <ele>542.780829233673671</ele>
        <time>2017-07-22T08:31:26Z</time>
      </trkpt>
      <trkpt lat="47.677378188818693" lon="12.821892080828547">
        <ele>536.289304934798906</ele>
        <time>2017-07-22T08:31:40Z</time>
      </trkpt>
      <trkpt lat="47.679194211959839" lon="12.821279866620898">
        <ele>532.401225752219602</ele>
        <time>2017-07-22T08:31:55Z</time>
      </trkpt>
      <trkpt lat="47.680990789085627" lon="12.821154305711389">
        <ele>525.800694392313517</ele>
        <time>2017-07-22T08:33:05Z</time>
      </trkpt>
      <trkpt lat="47.682690974324942" lon="12.820495571941137">
        <ele>521.402603243647263</ele>
        <time>2017-07-22T08:33:20Z</time>
      </trkpt>
      <trkpt lat="47.683505695313215" lon="12.817889470607042">
        <ele>522.663167434250681</ele>
        <time>2017-07-22T08:33:33Z</time>
      </trkpt>
      <trkpt lat="47.684581177309155" lon="12.815336929634213">
        <ele>525.751685964638</ele>
        <time>2017-07-22T08:33:45Z</time>
      </trkpt>
      <trkpt lat="47.685980787500739" lon="12.813495257869363">
        <ele>526.448438922400442</ele>
        <time>2017-07-22T08:33:57Z</time>
      </trkpt>
      <trkpt lat="47.687657084316015" lon="12.812176113948226">
        <ele>528.497620430105826</ele>
        <time>2017-07-22T08:34:10Z</time>
      </trkpt>
      <trkpt lat="47.687158193439245" lon="12.809571269899607">
        <ele>531.994664910957226</ele>
        <time>2017-07-22T08:34:23Z</time>
      </trkpt>
      <trkpt lat="47.687392299994826" lon="12.806794680655003">
        <ele>533.3954554682158</ele>
        <time>2017-07-22T08:34:35Z</time>
      </trkpt>
      <trkpt lat="47.688604574650526" lon="12.804562076926231">
        <ele>532.748270237379188</ele>
        <time>2017-07-22T08:34:49Z</time>
      </trkpt>
      <trkpt lat="47.690063863992691" lon="12.802661480382085">
        <ele>533.864457253712885</ele>
        <time>2017-07-22T08:35:02Z</time>
      </trkpt>
      <trkpt lat="47.69196211360395" lon="12.802001405507326">
        <ele>532.428302791166061</ele>
        <time>2017-07-22T08:35:14Z</time>
      </trkpt>
      <trkpt lat="47.693954911082983" lon="12.802249845117331">
        <ele>536.487686571088943</ele>
        <time>2017-07-22T08:35:24Z</time>
      </trkpt>
      <trkpt lat="47.695815358310938" lon="12.802544301375747">
        <ele>541.218956415512935</ele>
        <time>2017-07-22T08:35:34Z</time>
      </trkpt>
      <trkpt lat="47.697662143036723" lon="12.801508968695998">
        <ele>548.326050496531366</ele>
        <time>2017-07-22T08:35:44Z</time>
      </trkpt>
      <trkpt lat="47.699494929984212" lon="12.800974873825908">
        <ele>560.216050235285593</ele>
        <time>2017-07-22T08:35:54Z</time>
      </trkpt>
      <trkpt lat="47.701423689723015" lon="12.801026506349444">
        <ele>568.331481553259664</ele>
        <time>2017-07-22T08:36:06Z</time>
      </trkpt>
      <trkpt lat="47.703202413395047" lon="12.802221514284611">
        <ele>590.396062128763106</ele>
        <time>2017-07-22T08:36:18Z</time>
      </trkpt>
      <trkpt lat="47.704261634498835" lon="12.804340124130249">
        <ele>609.827975162991606</ele>
        <time>2017-07-22T08:36:33Z</time>
      </trkpt>
      <trkpt lat="47.704875525087118" lon="12.806312134489417">
        <ele>618.272942259601905</ele>
        <time>2017-07-22T08:36:50Z</time>
      </trkpt>
      <trkpt lat="47.704737307503819" lon="12.803446613252163">
        <ele>620.124757278154448</ele>
        <time>2017-07-22T08:37:04Z</time>
      </trkpt>
      <trkpt lat="47.704816097393632" lon="12.80061487108469">
        <ele>623.998539233148335</ele>
        <time>2017-07-22T08:37:17Z</time>
      </trkpt>
      <trkpt lat="47.706239009276032" lon="12.798937233164907">
        <ele>619.048684441465525</ele>
        <time>2017-07-22T08:37:31Z</time>
      </trkpt>
      <trkpt lat="47.707364531233907" lon="12.796717956662178">
        <ele>624.743787077261345</ele>
        <time>2017-07-22T08:37:43Z</time>
      </trkpt>
      <trkpt lat="47.708678562194109" lon="12.794881481677294">
        <ele>628.385777371682025</ele>
        <time>2017-07-22T08:37:56Z</time>
      </trkpt>
      <trkpt lat="47.710141288116574" lon="12.792891534045339">
        <ele>630.813128487288282</ele>
        <time>2017-07-22T08:38:10Z</time>
      </trkpt>
      <trkpt lat="47.7117511164397" lon="12.791494019329548">
        <ele>628.816225987760276</ele>
        <time>2017-07-22T08:38:23Z</time>
      </trkpt>
      <trkpt lat="47.711800402030349" lon="12.788858581334352">
        <ele>626.715707726616643</ele>
        <time>2017-07-22T08:38:36Z</time>
      </trkpt>
      <trkpt lat="47.711995784193277" lon="12.786141000688076">
        <ele>626.755375458578442</ele>
        <time>2017-07-22T08:38:48Z</time>
      </trkpt>
      <trkpt lat="47.712185718119144" lon="12.783445632085204">
        <ele>623.976213466054787</ele>
        <time>2017-07-22T08:39:00Z</time>
      </trkpt>
      <trkpt lat="47.712938915938139" lon="12.780940867960453">
        <ele>618.8923640547996</ele>
        <time>2017-07-22T08:39:12Z</time>
      </trkpt>
      <trkpt lat="47.713875006884336" lon="12.778425291180611">
        <ele>613.138275828012297</ele>
        <time>2017-07-22T08:39:25Z</time>
      </trkpt>
      <trkpt lat="47.715396489948034" lon="12.776853181421757">
        <ele>609.782642842296582</ele>
        <time>2017-07-22T08:39:37Z</time>
      </trkpt>
      <trkpt lat="47.716851672157645" lon="12.775153582915664">
        <ele>601.909667857775617</ele>
        <time>2017-07-22T08:39:50Z</time>
      </trkpt>
      <trkpt lat="47.718431577086449" lon="12.773567223921418">
        <ele>597.725224329237562</ele>
        <time>2017-07-22T08:40:07Z</time>
      </trkpt>
      <trkpt lat="47.719699256122112" lon="12.771304277703166">
        <ele>599.532786267438723</ele>
        <time>2017-07-22T08:40:24Z</time>
      </trkpt>
      <trkpt lat="47.720943801105022" lon="12.769167562946677">
        <ele>603.915959867232687</ele>
        <time>2017-07-22T08:40:38Z</time>
      </trkpt>
      <trkpt lat="47.722216844558716" lon="12.766977623105049">
        <ele>609.424737552038437</ele>
        <time>2017-07-22T08:40:51Z</time>
      </trkpt>
      <trkpt lat="47.723570102825761" lon="12.764850463718176">
        <ele>613.742476286918304</ele>
        <time>2017-07-22T08:41:03Z</time>
      </trkpt>
      <trkpt lat="47.725296355783939" lon="12.76337742805481">
        <ele>616.15326873772176</ele>
        <time>2017-07-22T08:41:18Z</time>
      </trkpt>
      <trkpt lat="47.726618014276028" lon="12.761208023875952">
        <ele>619.646174041264317</ele>
        <time>2017-07-22T08:41:31Z</time>
      </trkpt>
      <trkpt lat="47.727854931727052" lon="12.759002828970551">
        <ele>624.213076851689834</ele>
        <time>2017-07-22T08:41:43Z</time>
      </trkpt>
      <trkpt lat="47.728964276611805" lon="12.756612058728933">
        <ele>626.78855267720121</ele>
        <time>2017-07-22T08:41:58Z</time>
      </trkpt>
      <trkpt lat="47.729909084737301" lon="12.754432680085301">
        <ele>633.662202619148275</ele>
        <time>2017-07-22T08:42:10Z</time>
      </trkpt>
      <trkpt lat="47.731809765100479" lon="12.754230089485645">
        <ele>642.882101281051291</ele>
        <time>2017-07-22T08:42:23Z</time>
      </trkpt>
      <trkpt lat="47.733667362481356" lon="12.755259135738015">
        <ele>655.289402737577348</ele>
        <time>2017-07-22T08:42:35Z</time>
      </trkpt>
      <trkpt lat="47.735623195767403" lon="12.755934130400419">
        <ele>666.959519151992254</ele>
        <time>2017-07-22T08:42:50Z</time>
      </trkpt>
      <trkpt lat="47.737416084855795" lon="12.755366759374738">
        <ele>677.143480107989944</ele>
        <time>2017-07-22T08:43:04Z</time>
      </trkpt>
      <trkpt lat="47.73912264034152" lon="12.755216471850872">
        <ele>683.452326804697805</ele>
        <time>2017-07-22T08:43:26Z</time>
      </trkpt>
      <trkpt lat="47.74075074121356" lon="12.753650732338428">
        <ele>696.211237306451039</ele>
        <time>2017-07-22T08:43:40Z</time>
      </trkpt>
      <trkpt lat="47.742260657250881" lon="12.75188441388309">
        <ele>699.896766590917082</ele>
        <time>2017-07-22T08:43:53Z</time>
      </trkpt>
      <trkpt lat="47.743942569941282" lon="12.75073173455894">
        <ele>702.953489994082929</ele>
        <time>2017-07-22T08:44:04Z</time>
      </trkpt>
      <trkpt lat="47.74574157781899" lon="12.750050285831094">
        <ele>702.695604760801189</ele>
        <time>2017-07-22T08:44:14Z</time>
      </trkpt>
      <trkpt lat="47.747682156041265" lon="12.749623144045472">
        <ele>699.999299622219837</ele>
        <time>2017-07-22T08:44:24Z</time>
      </trkpt>
      <trkpt lat="47.749229706823826" lon="12.748789731413126">
        <ele>692.866060874148729</ele>
        <time>2017-07-22T08:44:41Z</time>
      </trkpt>
      <trkpt lat="47.750373920425773" lon="12.746333330869675">
        <ele>699.837818107029193</ele>
        <time>2017-07-22T08:44:53Z</time>
      </trkpt>
      <trkpt lat="47.750953193753958" lon="12.743454817682505">
        <ele>701.57358839649703</ele>
        <time>2017-07-22T08:45:04Z</time>
      </trkpt>
      <trkpt lat="47.751449486240745" lon="12.740624165162444">
        <ele>696.273386562032783</ele>
        <time>2017-07-22T08:45:15Z</time>
      </trkpt>
      <trkpt lat="47.751949466764927" lon="12.737924437969923">
        <ele>697.760971977437862</ele>
        <time>2017-07-22T08:45:25Z</time>
      </trkpt>
      <trkpt lat="47.751935971900821" lon="12.735216412693262">
        <ele>710.514104513674056</ele>
        <time>2017-07-22T08:45:35Z</time>
      </trkpt>
      <trkpt lat="47.752095814794302" lon="12.73231434635818">
        <ele>726.724613727492056</ele>
        <time>2017-07-22T08:45:48Z</time>
      </trkpt>
      <trkpt lat="47.75118394754827" lon="12.730290703475475">
        <ele>757.289667347731893</ele>
        <time>2017-07-22T08:53:07Z</time>
      </trkpt>
      <trkpt lat="47.749204644933343" lon="12.731261663138866">
        <ele>760.041341095889607</ele>
        <time>2017-07-22T08:53:19Z</time>
      </trkpt>
      <trkpt lat="47.747307401150465" lon="12.730179894715548">
        <ele>751.253612322666299</ele>
        <time>2017-07-22T08:53:31Z</time>
      </trkpt>
      <trkpt lat="47.747179241850972" lon="12.728119287639856">
        <ele>751.059154557798138</ele>
        <time>2017-07-22T08:53:45Z</time>
      </trkpt>
      <trkpt lat="47.748889569193125" lon="12.726958729326725">
        <ele>761.326798640353445</ele>
        <time>2017-07-22T08:53:54Z</time>
      </trkpt>
      <trkpt lat="47.750133778899908" lon="12.724765688180923">
        <ele>773.15148282235009</ele>
        <time>2017-07-22T08:54:04Z</time>
      </trkpt>
      <trkpt lat="47.750996947288513" lon="12.722124382853508">
        <ele>771.75066908349379</ele>
        <time>2017-07-22T08:54:13Z</time>
      </trkpt>
      <trkpt lat="47.75166817009449" lon="12.719381488859653">
        <ele>782.327915272103041</ele>
        <time>2017-07-22T08:54:22Z</time>
      </trkpt>
      <trkpt lat="47.752733174711466" lon="12.716762982308865">
        <ele>790.122690558590762</ele>
        <time>2017-07-22T08:54:32Z</time>
      </trkpt>
      <trkpt lat="47.753429040312767" lon="12.714277245104313">
        <ele>788.782538535476192</ele>
        <time>2017-07-22T08:54:40Z</time>
      </trkpt>
      <trkpt lat="47.753828354179859" lon="12.712781159207225">
        <ele>783.561104432364687</ele>
        <time>2017-07-22T08:54:45Z</time>
      </trkpt>
      <trkpt lat="47.754016276448965" lon="12.711199913173914">
        <ele>779.319037668463125</ele>
        <time>2017-07-22T08:54:50Z</time>
      </trkpt>
      <trkpt lat="47.754066148772836" lon="12.709562173113227">
        <ele>778.799226016228204</ele>
        <time>2017-07-22T08:54:55Z</time>
      </trkpt>
      <trkpt lat="47.754026083275676" lon="12.706485511735082">
        <ele>773.709193726495755</ele>
        <time>2017-07-22T08:55:04Z</time>
      </trkpt>
      <trkpt lat="47.753738248720765" lon="12.704915329813957">
        <ele>773.555005829653965</ele>
        <time>2017-07-22T08:55:09Z</time>
      </trkpt>
      <trkpt lat="47.753404900431633" lon="12.701709419488907">
        <ele>767.693184465927743</ele>
        <time>2017-07-22T08:55:19Z</time>
      </trkpt>
      <trkpt lat="47.753507327288389" lon="12.698841467499733">
        <ele>767.161765955438341</ele>
        <time>2017-07-22T08:55:27Z</time>
      </trkpt>
      <trkpt lat="47.754043601453304" lon="12.696023220196366">
        <ele>768.702456638933313</ele>
        <time>2017-07-22T08:55:35Z</time>
      </trkpt>
      <trkpt lat="47.754472000524402" lon="12.693383591249585">
        <ele>769.117540115626866</ele>
        <time>2017-07-22T08:55:43Z</time>
      </trkpt>
      <trkpt lat="47.754377201199532" lon="12.690646983683109">
        <ele>771.300059792105571</ele>
        <time>2017-07-22T08:55:52Z</time>
      </trkpt>
      <trkpt lat="47.754527991637588" lon="12.687691524624825">
        <ele>772.896727765512765</ele>
        <time>2017-07-22T08:56:00Z</time>
      </trkpt>
      <trkpt lat="47.754631424322724" lon="12.686091922223568">
        <ele>770.804814053260998</ele>
        <time>2017-07-22T08:56:05Z</time>
      </trkpt>
      <trkpt lat="47.754860669374466" lon="12.683068066835403">
        <ele>766.721309629319535</ele>
        <time>2017-07-22T08:56:15Z</time>
      </trkpt>
      <trkpt lat="47.753871269524097" lon="12.680483171716332">
        <ele>759.929818622901166</ele>
        <time>2017-07-22T08:56:25Z</time>
      </trkpt>
      <trkpt lat="47.752358838915825" lon="12.678423570469022">
        <ele>750.767544616296163</ele>
        <time>2017-07-22T08:56:34Z</time>
      </trkpt>
      <trkpt lat="47.750825621187687" lon="12.676965873688459">
        <ele>743.535156603765472</ele>
        <time>2017-07-22T08:56:42Z</time>
      </trkpt>
      <trkpt lat="47.749074641615152" lon="12.675398457795382">
        <ele>735.379060586827109</ele>
        <time>2017-07-22T08:56:51Z</time>
      </trkpt>
      <trkpt lat="47.747465986758471" lon="12.673646891489625">
        <ele>717.78836745255569</ele>
        <time>2017-07-22T08:57:01Z</time>
      </trkpt>
      <trkpt lat="47.746710190549493" lon="12.672419026494026">
        <ele>712.342418311454594</ele>
        <time>2017-07-22T08:57:06Z</time>
      </trkpt>
      <trkpt lat="47.745806789025664" lon="12.671376820653677">
        <ele>710.311235955095981</ele>
        <time>2017-07-22T08:57:11Z</time>
      </trkpt>
      <trkpt lat="47.744000069797039" lon="12.670517507940531">
        <ele>696.321803567751545</ele>
        <time>2017-07-22T08:57:19Z</time>
      </trkpt>
      <trkpt lat="47.742051864042878" lon="12.669686190783978">
        <ele>688.669499568996343</ele>
        <time>2017-07-22T08:57:28Z</time>
      </trkpt>
      <trkpt lat="47.741680797189474" lon="12.662178687751293">
        <ele>672.963472834980962</ele>
        <time>2017-07-22T08:57:54Z</time>
      </trkpt>
      <trkpt lat="47.740601627156138" lon="12.659658500924706">
        <ele>671.371137129933913</ele>
        <time>2017-07-22T08:58:03Z</time>
      </trkpt>
      <trkpt lat="47.739110821858048" lon="12.658537421375513">
        <ele>668.677215747668811</ele>
        <time>2017-07-22T08:58:23Z</time>
      </trkpt>
      <trkpt lat="47.7373122330755" lon="12.659685490652919">
        <ele>674.325487165327445</ele>
        <time>2017-07-22T08:58:33Z</time>
      </trkpt>
      <trkpt lat="47.735948916524649" lon="12.660468025133014">
        <ele>674.659820983225472</ele>
        <time>2017-07-22T08:58:40Z</time>
      </trkpt>
      <trkpt lat="47.734621558338404" lon="12.660953672602773">
        <ele>675.789127108626531</ele>
        <time>2017-07-22T08:58:47Z</time>
      </trkpt>
      <trkpt lat="47.733707344159484" lon="12.661894289776683">
        <ele>678.65095011425376</ele>
        <time>2017-07-22T08:58:53Z</time>
      </trkpt>
      <trkpt lat="47.732022246345878" lon="12.663536556065083">
        <ele>679.416703998635057</ele>
        <time>2017-07-22T08:59:03Z</time>
      </trkpt>
      <trkpt lat="47.729499461129308" lon="12.661948939785361">
        <ele>683.675388385898145</ele>
        <time>2017-07-22T08:59:17Z</time>
      </trkpt>
      <trkpt lat="47.728016367182136" lon="12.661063643172383">
        <ele>687.793061161882406</ele>
        <time>2017-07-22T08:59:29Z</time>
      </trkpt>
      <trkpt lat="47.726935520768166" lon="12.660265518352389">
        <ele>689.798692181795673</ele>
        <time>2017-07-22T08:59:36Z</time>
      </trkpt>
      <trkpt lat="47.725499616935849" lon="12.65842535533011">
        <ele>688.671298631097443</ele>
        <time>2017-07-22T08:59:46Z</time>
      </trkpt>
      <trkpt lat="47.724501919001341" lon="12.657762262970209">
        <ele>688.596041083541422</ele>
        <time>2017-07-22T08:59:53Z</time>
      </trkpt>
      <trkpt lat="47.722838781774044" lon="12.656351923942566">
        <ele>691.365165462203663</ele>
        <time>2017-07-22T09:00:05Z</time>
      </trkpt>
      <trkpt lat="47.721302211284637" lon="12.654632795602083">
        <ele>693.937560946168901</ele>
        <time>2017-07-22T09:00:17Z</time>
      </trkpt>
      <trkpt lat="47.71975533105433" lon="12.652545450255275">
        <ele>698.276642823192446</ele>
        <time>2017-07-22T09:00:29Z</time>
      </trkpt>
      <trkpt lat="47.718402659520507" lon="12.650177562609315">
        <ele>701.318312717684307</ele>
        <time>2017-07-22T09:00:40Z</time>
      </trkpt>
      <trkpt lat="47.717244951054454" lon="12.647945377975702">
        <ele>701.111029346940768</ele>
        <time>2017-07-22T09:00:50Z</time>
      </trkpt>
      <trkpt lat="47.71606863476336" lon="12.645552009344101">
        <ele>700.343346787119572</ele>
        <time>2017-07-22T09:01:02Z</time>
      </trkpt>
      <trkpt lat="47.715194234624505" lon="12.64297541230917">
        <ele>698.081864714048606</ele>
        <time>2017-07-22T09:01:15Z</time>
      </trkpt>
      <trkpt lat="47.71493112668395" lon="12.640202175825834">
        <ele>697.588272442349421</ele>
        <time>2017-07-22T09:01:27Z</time>
      </trkpt>
      <trkpt lat="47.715076887980103" lon="12.637347299605608">
        <ele>700.67060825427086</ele>
        <time>2017-07-22T09:01:39Z</time>
      </trkpt>
      <trkpt lat="47.714907908812165" lon="12.634235601872206">
        <ele>705.450241683687636</ele>
        <time>2017-07-22T09:01:51Z</time>
      </trkpt>
      <trkpt lat="47.714008446782827" lon="12.631781883537769">
        <ele>709.538780774018278</ele>
        <time>2017-07-22T09:02:03Z</time>
      </trkpt>
      <trkpt lat="47.713934099301696" lon="12.628889959305525">
        <ele>715.210462283998822</ele>
        <time>2017-07-22T09:02:16Z</time>
      </trkpt>
      <trkpt lat="47.713168496266007" lon="12.626364072784781">
        <ele>720.76871105482553</ele>
        <time>2017-07-22T09:02:28Z</time>
      </trkpt>
      <trkpt lat="47.711704345420003" lon="12.624233476817608">
        <ele>726.708257434216534</ele>
        <time>2017-07-22T09:02:40Z</time>
      </trkpt>
      <trkpt lat="47.710796669125557" lon="12.621778082102537">
        <ele>731.650240749127647</ele>
        <time>2017-07-22T09:02:53Z</time>
      </trkpt>
      <trkpt lat="47.709182649850845" lon="12.61975578032434">
        <ele>735.590335230244932</ele>
        <time>2017-07-22T09:03:05Z</time>
      </trkpt>
      <trkpt lat="47.707490175962448" lon="12.618007566779852">
        <ele>734.536514906523053</ele>
        <time>2017-07-22T09:03:17Z</time>
      </trkpt>
      <trkpt lat="47.705630147829652" lon="12.617599703371525">
        <ele>730.791707036740831</ele>
        <time>2017-07-22T09:03:30Z</time>
      </trkpt>
      <trkpt lat="47.703825272619724" lon="12.616715747863054">
        <ele>735.449847910526842</ele>
        <time>2017-07-22T09:03:48Z</time>
      </trkpt>
      <trkpt lat="47.70210555754602" lon="12.615585867315531">
        <ele>743.446805734240684</ele>
        <time>2017-07-22T09:03:59Z</time>
      </trkpt>
      <trkpt lat="47.700586840510368" lon="12.613947708159685">
        <ele>751.974350701312119</ele>
        <time>2017-07-22T09:04:09Z</time>
      </trkpt>
      <trkpt lat="47.699843198060989" lon="12.611029129475355">
        <ele>758.159509067275394</ele>
        <time>2017-07-22T09:04:19Z</time>
      </trkpt>
      <trkpt lat="47.69920994527638" lon="12.608204176649451">
        <ele>764.770317971965142</ele>
        <time>2017-07-22T09:04:29Z</time>
      </trkpt>
      <trkpt lat="47.698353314772248" lon="12.605727156624198">
        <ele>771.594718193628523</ele>
        <time>2017-07-22T09:04:39Z</time>
      </trkpt>
      <trkpt lat="47.696944568306208" lon="12.603806275874376">
        <ele>774.004224274980288</ele>
        <time>2017-07-22T09:04:49Z</time>
      </trkpt>
      <trkpt lat="47.695049084722996" lon="12.602959536015987">
        <ele>771.940317355904654</ele>
        <time>2017-07-22T09:05:02Z</time>
      </trkpt>
      <trkpt lat="47.693154690787196" lon="12.601899225264788">
        <ele>767.540112302953503</ele>
        <time>2017-07-22T09:05:12Z</time>
      </trkpt>
      <trkpt lat="47.692317338660359" lon="12.600875291973352">
        <ele>763.899395471237085</ele>
        <time>2017-07-22T09:05:17Z</time>
      </trkpt>
      <trkpt lat="47.691602529957891" lon="12.599612893536687">
        <ele>762.004370348248472</ele>
        <time>2017-07-22T09:05:22Z</time>
      </trkpt>
      <trkpt lat="47.691259542480111" lon="12.596750557422638">
        <ele>765.162217605957608</ele>
        <time>2017-07-22T09:05:31Z</time>
      </trkpt>
      <trkpt lat="47.691263733431697" lon="12.595126228407025">
        <ele>769.521121030058794</ele>
        <time>2017-07-22T09:05:36Z</time>
      </trkpt>
      <trkpt lat="47.690463596954942" lon="12.592252576723695">
        <ele>772.834336381049525</ele>
        <time>2017-07-22T09:05:46Z</time>
      </trkpt>
      <trkpt lat="47.689690366387367" lon="12.59110014885664">
        <ele>770.611054162989603</ele>
        <time>2017-07-22T09:05:51Z</time>
      </trkpt>
      <trkpt lat="47.688865168020129" lon="12.590030785650015">
        <ele>767.232464273917458</ele>
        <time>2017-07-22T09:05:56Z</time>
      </trkpt>
      <trkpt lat="47.688144659623504" lon="12.588803172111511">
        <ele>763.597793990215905</ele>
        <time>2017-07-22T09:06:01Z</time>
      </trkpt>
      <trkpt lat="47.68726053647697" lon="12.585898088291287">
        <ele>759.156250387186674</ele>
        <time>2017-07-22T09:06:11Z</time>
      </trkpt>
      <trkpt lat="47.687363969162107" lon="12.583098784089088">
        <ele>759.082869944800336</ele>
        <time>2017-07-22T09:06:19Z</time>
      </trkpt>
      <trkpt lat="47.687997976318002" lon="12.58034985512495">
        <ele>760.297597121656963</ele>
        <time>2017-07-22T09:06:27Z</time>
      </trkpt>
      <trkpt lat="47.68852804787457" lon="12.57755046710372">
        <ele>758.862496726146674</ele>
        <time>2017-07-22T09:06:35Z</time>
      </trkpt>
      <trkpt lat="47.688568951562047" lon="12.574867084622383">
        <ele>757.627933019089369</ele>
        <time>2017-07-22T09:06:43Z</time>
      </trkpt>
      <trkpt lat="47.688184473663568" lon="12.572156209498644">
        <ele>751.145978551449161</ele>
        <time>2017-07-22T09:06:53Z</time>
      </trkpt>
      <trkpt lat="47.687604110687971" lon="12.56941088475287">
        <ele>753.612033046905822</ele>
        <time>2017-07-22T09:07:05Z</time>
      </trkpt>
      <trkpt lat="47.686826689168811" lon="12.566804196685553">
        <ele>754.152576296380175</ele>
        <time>2017-07-22T09:07:15Z</time>
      </trkpt>
      <trkpt lat="47.686329390853643" lon="12.563951332122087">
        <ele>755.638181048848651</ele>
        <time>2017-07-22T09:07:25Z</time>
      </trkpt>
      <trkpt lat="47.686083884909749" lon="12.560920855030417">
        <ele>754.02027515908253</ele>
        <time>2017-07-22T09:07:35Z</time>
      </trkpt>
      <trkpt lat="47.685747938230634" lon="12.557859783992171">
        <ele>753.170521229494625</ele>
        <time>2017-07-22T09:07:47Z</time>
      </trkpt>
      <trkpt lat="47.685268325731158" lon="12.555117812007666">
        <ele>752.296328919346138</ele>
        <time>2017-07-22T09:07:57Z</time>
      </trkpt>
      <trkpt lat="47.684601126238704" lon="12.552441721782088">
        <ele>754.894454955604147</ele>
        <time>2017-07-22T09:08:06Z</time>
      </trkpt>
      <trkpt lat="47.684069713577628" lon="12.550964327529073">
        <ele>756.234046050453117</ele>
        <time>2017-07-22T09:08:11Z</time>
      </trkpt>
      <trkpt lat="47.682818714529276" lon="12.548709008842707">
        <ele>757.439396043180295</ele>
        <time>2017-07-22T09:08:20Z</time>
      </trkpt>
      <trkpt lat="47.681327825412154" lon="12.546584531664848">
        <ele>755.226157137277255</ele>
        <time>2017-07-22T09:08:30Z</time>
      </trkpt>
      <trkpt lat="47.678379574790597" lon="12.54540603607893">
        <ele>754.892965850490555</ele>
        <time>2017-07-22T09:08:43Z</time>
      </trkpt>
      <trkpt lat="47.676524156704545" lon="12.546048341318965">
        <ele>755.220104080253122</ele>
        <time>2017-07-22T09:08:50Z</time>
      </trkpt>
      <trkpt lat="47.674609227105975" lon="12.546461736783385">
        <ele>758.897998678059366</ele>
        <time>2017-07-22T09:08:58Z</time>
      </trkpt>
      <trkpt lat="47.670043269172311" lon="12.546813860535622">
        <ele>766.910286997112962</ele>
        <time>2017-07-22T09:09:18Z</time>
      </trkpt>
      <trkpt lat="47.668971223756671" lon="12.54614875651896">
        <ele>767.998475356112408</ele>
        <time>2017-07-22T09:09:23Z</time>
      </trkpt>
      <trkpt lat="47.658632230013609" lon="12.540073385462165">
        <ele>758.394421406485094</ele>
        <time>2017-07-22T09:10:22Z</time>
      </trkpt>
      <trkpt lat="47.657273272052407" lon="12.537959720939398">
        <ele>753.754166774795294</ele>
        <time>2017-07-22T09:10:36Z</time>
      </trkpt>
      <trkpt lat="47.656922154128551" lon="12.533141551539302">
        <ele>750.305419768293405</ele>
        <time>2017-07-22T09:10:51Z</time>
      </trkpt>
      <trkpt lat="47.657128684222698" lon="12.531515378504992">
        <ele>748.470061039007533</ele>
        <time>2017-07-22T09:10:56Z</time>
      </trkpt>
      <trkpt lat="47.657551383599639" lon="12.530029937624931">
        <ele>746.66946777086946</ele>
        <time>2017-07-22T09:11:01Z</time>
      </trkpt>
      <trkpt lat="47.658640444278717" lon="12.526723947376013">
        <ele>740.192920736764336</ele>
        <time>2017-07-22T09:11:12Z</time>
      </trkpt>
      <trkpt lat="47.65952356159687" lon="12.525513600558043">
        <ele>737.208995662918596</ele>
        <time>2017-07-22T09:11:17Z</time>
      </trkpt>
      <trkpt lat="47.660293355584145" lon="12.522945469245315">
        <ele>731.830019302981668</ele>
        <time>2017-07-22T09:11:27Z</time>
      </trkpt>
      <trkpt lat="47.660712702199817" lon="12.519919015467167">
        <ele>729.206920647837023</ele>
        <time>2017-07-22T09:11:37Z</time>
      </trkpt>
      <trkpt lat="47.661065747961402" lon="12.518385211005807">
        <ele>727.432407051086784</ele>
        <time>2017-07-22T09:11:42Z</time>
      </trkpt>
      <trkpt lat="47.661655498668551" lon="12.515832418575883">
        <ele>726.586256798630302</ele>
        <time>2017-07-22T09:11:50Z</time>
      </trkpt>
      <trkpt lat="47.662711450830102" lon="12.513153059408069">
        <ele>723.321520605504702</ele>
        <time>2017-07-22T09:12:00Z</time>
      </trkpt>
      <trkpt lat="47.66316625289619" lon="12.511694189161062">
        <ele>722.510776749332308</ele>
        <time>2017-07-22T09:12:05Z</time>
      </trkpt>
      <trkpt lat="47.663811910897493" lon="12.508894130587578">
        <ele>716.165974782711601</ele>
        <time>2017-07-22T09:12:14Z</time>
      </trkpt>
      <trkpt lat="47.664443822577596" lon="12.506334884092212">
        <ele>711.025882422254426</ele>
        <time>2017-07-22T09:12:22Z</time>
      </trkpt>
      <trkpt lat="47.665283186361194" lon="12.503836490213871">
        <ele>706.952890459731066</ele>
        <time>2017-07-22T09:12:31Z</time>
      </trkpt>
      <trkpt lat="47.665894981473684" lon="12.500899219885468">
        <ele>700.129471638448422</ele>
        <time>2017-07-22T09:12:41Z</time>
      </trkpt>
      <trkpt lat="47.666103104129434" lon="12.499321913346648">
        <ele>695.674470212193341</ele>
        <time>2017-07-22T09:12:47Z</time>
      </trkpt>
      <trkpt lat="47.666869712993503" lon="12.496692929416895">
        <ele>690.430348881967006</ele>
        <time>2017-07-22T09:12:59Z</time>
      </trkpt>
      <trkpt lat="47.668258007615805" lon="12.494504079222679">
        <ele>685.760918304980692</ele>
        <time>2017-07-22T09:13:11Z</time>
      </trkpt>
      <trkpt lat="47.669824166223407" lon="12.492829039692879">
        <ele>685.470857827832674</ele>
        <time>2017-07-22T09:13:22Z</time>
      </trkpt>
      <trkpt lat="47.670930828899145" lon="12.490505324676633">
        <ele>681.653800189463254</ele>
        <time>2017-07-22T09:13:32Z</time>
      </trkpt>
      <trkpt lat="47.671053623780608" lon="12.487794449552894">
        <ele>677.19381633642638</ele>
        <time>2017-07-22T09:13:44Z</time>
      </trkpt>
      <trkpt lat="47.670973995700479" lon="12.485039485618472">
        <ele>675.526951904990938</ele>
        <time>2017-07-22T09:13:56Z</time>
      </trkpt>
      <trkpt lat="47.671195529401302" lon="12.481994088739157">
        <ele>673.248833330047432</ele>
        <time>2017-07-22T09:14:08Z</time>
      </trkpt>
      <trkpt lat="47.67138403840363" lon="12.4791528750211">
        <ele>670.355352880529381</ele>
        <time>2017-07-22T09:14:19Z</time>
      </trkpt>
      <trkpt lat="47.672027181833982" lon="12.476735953241587">
        <ele>663.000543571006915</ele>
        <time>2017-07-22T09:14:38Z</time>
      </trkpt>
      <trkpt lat="47.672695303335786" lon="12.474393546581268">
        <ele>670.065151678893017</ele>
        <time>2017-07-22T09:14:53Z</time>
      </trkpt>
      <trkpt lat="47.673129234462976" lon="12.47194753959775">
        <ele>674.682800525544735</ele>
        <time>2017-07-22T09:15:09Z</time>
      </trkpt>
      <trkpt lat="47.674866132438183" lon="12.471376312896609">
        <ele>675.440986519723197</ele>
        <time>2017-07-22T09:15:25Z</time>
      </trkpt>
      <trkpt lat="47.676580231636763" lon="12.471086550503969">
        <ele>674.917272850955101</ele>
        <time>2017-07-22T09:15:51Z</time>
      </trkpt>
      <trkpt lat="47.677905494347215" lon="12.469768328592181">
        <ele>679.337109888975988</ele>
        <time>2017-07-22T09:16:46Z</time>
      </trkpt>
      <trkpt lat="47.676654830574989" lon="12.467987006530166">
        <ele>673.718391346728936</ele>
        <time>2017-07-22T09:17:32Z</time>
      </trkpt>
      <trkpt lat="47.675690073519945" lon="12.465716600418091">
        <ele>670.308404767413094</ele>
        <time>2017-07-22T09:18:05Z</time>
      </trkpt>
      <trkpt lat="47.675085989758372" lon="12.463709134608507">
        <ele>673.222062689415111</ele>
        <time>2017-07-22T10:02:05Z</time>
      </trkpt>
      <trkpt lat="47.674033557996154" lon="12.461381647735834">
        <ele>673.571912671229825</ele>
        <time>2017-07-22T10:02:20Z</time>
      </trkpt>
      <trkpt lat="47.672937288880348" lon="12.459088442847133">
        <ele>675.093284537264026</ele>
        <time>2017-07-22T10:02:34Z</time>
      </trkpt>
      <trkpt lat="47.671671034768224" lon="12.457075528800488">
        <ele>674.130677757432522</ele>
        <time>2017-07-22T10:02:48Z</time>
      </trkpt>
      <trkpt lat="47.670466974377632" lon="12.454920541495085">
        <ele>673.941028891488031</ele>
        <time>2017-07-22T10:03:00Z</time>
      </trkpt>
      <trkpt lat="47.669332399964333" lon="12.452577967196703">
        <ele>666.577182185990523</ele>
        <time>2017-07-22T10:03:14Z</time>
      </trkpt>
      <trkpt lat="47.667686697095633" lon="12.452204888686538">
        <ele>659.285576978247263</ele>
        <time>2017-07-22T10:03:34Z</time>
      </trkpt>
      <trkpt lat="47.666080053895712" lon="12.450662953779101">
        <ele>654.941966608013786</ele>
        <time>2017-07-22T10:03:47Z</time>
      </trkpt>
      <trkpt lat="47.664193203672767" lon="12.450777115300298">
        <ele>648.519900017818031</ele>
        <time>2017-07-22T10:04:00Z</time>
      </trkpt>
      <trkpt lat="47.662663422524929" lon="12.449820740148425">
        <ele>642.998461195932009</ele>
        <time>2017-07-22T10:04:12Z</time>
      </trkpt>
      <trkpt lat="47.661367664113641" lon="12.447589309886098">
        <ele>636.617496677032477</ele>
        <time>2017-07-22T10:04:25Z</time>
      </trkpt>
      <trkpt lat="47.660176679491997" lon="12.445805389434099">
        <ele>625.295377981958723</ele>
        <time>2017-07-22T10:04:40Z</time>
      </trkpt>
      <trkpt lat="47.659243438392878" lon="12.443423923105001">
        <ele>615.821914825494218</ele>
        <time>2017-07-22T10:04:57Z</time>
      </trkpt>
      <trkpt lat="47.659282581880689" lon="12.440701313316822">
        <ele>609.403464566164871</ele>
        <time>2017-07-22T10:05:13Z</time>
      </trkpt>
      <trkpt lat="47.660210374742746" lon="12.438109712675214">
        <ele>606.626039691767119</ele>
        <time>2017-07-22T10:05:26Z</time>
      </trkpt>
      <trkpt lat="47.661384595558047" lon="12.435833439230919">
        <ele>602.23727233029058</ele>
        <time>2017-07-22T10:05:39Z</time>
      </trkpt>
      <trkpt lat="47.661035740748048" lon="12.43326329626143">
        <ele>599.628878552526771</ele>
        <time>2017-07-22T10:05:54Z</time>
      </trkpt>
      <trkpt lat="47.661032387986779" lon="12.430799854919314">
        <ele>596.325026543931244</ele>
        <time>2017-07-22T10:06:12Z</time>
      </trkpt>
      <trkpt lat="47.661887425929308" lon="12.428090320900083">
        <ele>599.107308602075136</ele>
        <time>2017-07-22T10:06:27Z</time>
      </trkpt>
      <trkpt lat="47.662124130874872" lon="12.425261596217752">
        <ele>598.715767076187831</ele>
        <time>2017-07-22T10:06:43Z</time>
      </trkpt>
      <trkpt lat="47.661991780623794" lon="12.422431111335754">
        <ele>595.026428472410544</ele>
        <time>2017-07-22T10:06:58Z</time>
      </trkpt>
      <trkpt lat="47.661839816719294" lon="12.41964865475893">
        <ele>591.816320821537261</ele>
        <time>2017-07-22T10:07:12Z</time>
      </trkpt>
      <trkpt lat="47.662094878032804" lon="12.41689964197576">
        <ele>586.122464048420284</ele>
        <time>2017-07-22T10:07:28Z</time>
      </trkpt>
      <trkpt lat="47.662026816979051" lon="12.41415255703032">
        <ele>585.027070397616058</ele>
        <time>2017-07-22T10:07:46Z</time>
      </trkpt>
      <trkpt lat="47.661655498668551" lon="12.41138057783246">
        <ele>587.187194092241612</ele>
        <time>2017-07-22T10:08:01Z</time>
      </trkpt>
      <trkpt lat="47.661127857863903" lon="12.408668445423245">
        <ele>590.052304394439943</ele>
        <time>2017-07-22T10:08:12Z</time>
      </trkpt>
      <trkpt lat="47.660871874541044" lon="12.405798314139247">
        <ele>583.65387026541157</ele>
        <time>2017-07-22T10:08:26Z</time>
      </trkpt>
      <trkpt lat="47.660785121843219" lon="12.402902785688639">
        <ele>582.368788394546641</ele>
        <time>2017-07-22T10:08:55Z</time>
      </trkpt>
      <trkpt lat="47.661287533119321" lon="12.400272879749537">
        <ele>581.763105865026773</ele>
        <time>2017-07-22T10:09:08Z</time>
      </trkpt>
      <trkpt lat="47.661449639126658" lon="12.397406185045838">
        <ele>583.669249680187704</ele>
        <time>2017-07-22T10:09:28Z</time>
      </trkpt>
      <trkpt lat="47.662013154476881" lon="12.394624399021268">
        <ele>586.325119884480955</ele>
        <time>2017-07-22T10:09:43Z</time>
      </trkpt>
      <trkpt lat="47.662629056721926" lon="12.391799530014396">
        <ele>591.009926235135936</ele>
        <time>2017-07-22T10:09:56Z</time>
      </trkpt>
      <trkpt lat="47.662626961246133" lon="12.388938702642918">
        <ele>595.450513707357914</ele>
        <time>2017-07-22T10:10:09Z</time>
      </trkpt>
      <trkpt lat="47.661739652976394" lon="12.3862767778337">
        <ele>599.129058186412294</ele>
        <time>2017-07-22T10:10:26Z</time>
      </trkpt>
      <trkpt lat="47.660523690283298" lon="12.384076528251171">
        <ele>603.749295611637763</ele>
        <time>2017-07-22T10:10:38Z</time>
      </trkpt>
      <trkpt lat="47.658806489780545" lon="12.382663004100323">
        <ele>607.711456530704936</ele>
        <time>2017-07-22T10:10:50Z</time>
      </trkpt>
      <trkpt lat="47.65728073194623" lon="12.380924262106419">
        <ele>611.732136189221933</ele>
        <time>2017-07-22T10:11:01Z</time>
      </trkpt>
      <trkpt lat="47.656115395948291" lon="12.378367278724909">
        <ele>614.497897513104363</ele>
        <time>2017-07-22T10:11:13Z</time>
      </trkpt>
      <trkpt lat="47.654812010005116" lon="12.376186558976769">
        <ele>615.443817841051214</ele>
        <time>2017-07-22T10:11:25Z</time>
      </trkpt>
      <trkpt lat="47.653887653723359" lon="12.373758321627975">
        <ele>613.461565497314723</ele>
        <time>2017-07-22T10:11:37Z</time>
      </trkpt>
      <trkpt lat="47.652490390464664" lon="12.371777510270476">
        <ele>610.94866408017424</ele>
        <time>2017-07-22T10:11:49Z</time>
      </trkpt>
      <trkpt lat="47.651595287024975" lon="12.369135282933712">
        <ele>611.897651846762756</ele>
        <time>2017-07-22T10:12:02Z</time>
      </trkpt>
      <trkpt lat="47.650943258777261" lon="12.366294488310814">
        <ele>615.599559440247731</ele>
        <time>2017-07-22T10:12:14Z</time>
      </trkpt>
      <trkpt lat="47.651185328140855" lon="12.364729503169656">
        <ele>617.901445966888105</ele>
        <time>2017-07-22T10:12:20Z</time>
      </trkpt>
      <trkpt lat="47.651091199368238" lon="12.361886277794838">
        <ele>622.712475444726124</ele>
        <time>2017-07-22T10:12:31Z</time>
      </trkpt>
      <trkpt lat="47.650476973503828" lon="12.359044812619686">
        <ele>625.991080944480473</ele>
        <time>2017-07-22T10:12:42Z</time>
      </trkpt>
      <trkpt lat="47.650320483371615" lon="12.356347683817148">
        <ele>630.183911972995702</ele>
        <time>2017-07-22T10:12:52Z</time>
      </trkpt>
      <trkpt lat="47.649668538942933" lon="12.353851553052664">
        <ele>633.550820493995843</ele>
        <time>2017-07-22T10:13:02Z</time>
      </trkpt>
      <trkpt lat="47.649680776521564" lon="12.351166075095534">
        <ele>636.309621498535421</ele>
        <time>2017-07-22T10:13:12Z</time>
      </trkpt>
      <trkpt lat="47.649105275049806" lon="12.348346989601851">
        <ele>640.322544804218296</ele>
        <time>2017-07-22T10:13:24Z</time>
      </trkpt>
      <trkpt lat="47.648691795766354" lon="12.345559503883123">
        <ele>640.586057859125503</ele>
        <time>2017-07-22T10:13:37Z</time>
      </trkpt>
      <trkpt lat="47.649611039087176" lon="12.342961700633168">
        <ele>646.88649662381647</ele>
        <time>2017-07-22T10:13:49Z</time>
      </trkpt>
      <trkpt lat="47.650743685662746" lon="12.340475795790553">
        <ele>655.25886043544017</ele>
        <time>2017-07-22T10:14:04Z</time>
      </trkpt>
      <trkpt lat="47.651473414152861" lon="12.337870113551617">
        <ele>658.911752732496666</ele>
        <time>2017-07-22T10:14:20Z</time>
      </trkpt>
      <trkpt lat="47.65179829671979" lon="12.335184719413519">
        <ele>657.43012835962918</ele>
        <time>2017-07-22T10:14:33Z</time>
      </trkpt>
      <trkpt lat="47.651528231799603" lon="12.332182237878442">
        <ele>651.730528154778426</ele>
        <time>2017-07-22T10:14:47Z</time>
      </trkpt>
      <trkpt lat="47.651343075558543" lon="12.329515283927321">
        <ele>644.893220398042558</ele>
        <time>2017-07-22T10:15:06Z</time>
      </trkpt>
      <trkpt lat="47.651306446641684" lon="12.326767444610596">
        <ele>647.167565228101125</ele>
        <time>2017-07-22T10:15:25Z</time>
      </trkpt>
      <trkpt lat="47.650833623483777" lon="12.325061392039061">
        <ele>642.79109866285728</ele>
        <time>2017-07-22T10:19:24Z</time>
      </trkpt>
      <trkpt lat="47.651000339537859" lon="12.324799122288823">
        <ele>644.272671427345017</ele>
        <time>2017-07-22T10:31:07Z</time>
      </trkpt>
      <trkpt lat="47.650823565199971" lon="12.322088582441211">
        <ele>645.530324750192221</ele>
        <time>2017-07-22T10:31:28Z</time>
      </trkpt>
      <trkpt lat="47.651135791093111" lon="12.319403272122145">
        <ele>647.028642892872767</ele>
        <time>2017-07-22T10:31:52Z</time>
      </trkpt>
      <trkpt lat="47.651254814118147" lon="12.316680159419775">
        <ele>647.343870764140206</ele>
        <time>2017-07-22T10:32:19Z</time>
      </trkpt>
      <trkpt lat="47.65125690959394" lon="12.313977414742112">
        <ele>649.764176532033957</ele>
        <time>2017-07-22T10:32:35Z</time>
      </trkpt>
      <trkpt lat="47.649685135111213" lon="12.312555341050029">
        <ele>648.778267733379721</ele>
        <time>2017-07-22T10:32:52Z</time>
      </trkpt>
      <trkpt lat="47.648743344470859" lon="12.310218717902899">
        <ele>650.46554094154385</ele>
        <time>2017-07-22T10:33:08Z</time>
      </trkpt>
      <trkpt lat="47.647878583520651" lon="12.307503148913383">
        <ele>655.290314275759897</ele>
        <time>2017-07-22T10:33:22Z</time>
      </trkpt>
      <trkpt lat="47.647506846114993" lon="12.304762937128544">
        <ele>659.654082357356288</ele>
        <time>2017-07-22T10:33:35Z</time>
      </trkpt>
      <trkpt lat="47.646664381027222" lon="12.302269069477916">
        <ele>661.596123149757432</ele>
        <time>2017-07-22T10:33:48Z</time>
      </trkpt>
      <trkpt lat="47.645660480484366" lon="12.299800012260675">
        <ele>666.829029238747353</ele>
        <time>2017-07-22T10:34:00Z</time>
      </trkpt>
      <trkpt lat="47.644373690709472" lon="12.297501275315881">
        <ele>670.229476305640901</ele>
        <time>2017-07-22T10:34:12Z</time>
      </trkpt>
      <trkpt lat="47.642981959506869" lon="12.295485008507967">
        <ele>673.030264914177224</ele>
        <time>2017-07-22T10:34:25Z</time>
      </trkpt>
      <trkpt lat="47.641406329348683" lon="12.293640989810228">
        <ele>679.612369213856482</ele>
        <time>2017-07-22T10:34:36Z</time>
      </trkpt>
      <trkpt lat="47.640629662200809" lon="12.29096976108849">
        <ele>681.646938004236858</ele>
        <time>2017-07-22T10:34:49Z</time>
      </trkpt>
      <trkpt lat="47.639733972027898" lon="12.28851486928761">
        <ele>681.359009176825225</ele>
        <time>2017-07-22T10:35:03Z</time>
      </trkpt>
      <trkpt lat="47.638607360422611" lon="12.286833375692368">
        <ele>676.593762470642446</ele>
        <time>2017-07-22T10:35:28Z</time>
      </trkpt>
      <trkpt lat="47.639176743105054" lon="12.284234482795">
        <ele>674.132214470171675</ele>
        <time>2017-07-22T10:35:44Z</time>
      </trkpt>
      <trkpt lat="47.639727266505361" lon="12.281289082020521">
        <ele>671.561521681488557</ele>
        <time>2017-07-22T10:35:56Z</time>
      </trkpt>
      <trkpt lat="47.63984989374876" lon="12.278332281857729">
        <ele>666.293312205149505</ele>
        <time>2017-07-22T10:36:08Z</time>
      </trkpt>
      <trkpt lat="47.639332730323076" lon="12.27568494156003">
        <ele>659.546293906616029</ele>
        <time>2017-07-22T10:36:19Z</time>
      </trkpt>
      <trkpt lat="47.63969985768199" lon="12.273152014240623">
        <ele>646.252637205852352</ele>
        <time>2017-07-22T10:36:30Z</time>
      </trkpt>
      <trkpt lat="47.64082470908761" lon="12.270878003910184">
        <ele>634.268449611608503</ele>
        <time>2017-07-22T10:36:40Z</time>
      </trkpt>
      <trkpt lat="47.641749149188399" lon="12.268235860392451">
        <ele>621.798072789678258</ele>
        <time>2017-07-22T10:36:50Z</time>
      </trkpt>
      <trkpt lat="47.643269626423717" lon="12.266255049034953">
        <ele>603.23464251775431</ele>
        <time>2017-07-22T10:37:02Z</time>
      </trkpt>
      <trkpt lat="47.644770741462708" lon="12.264595767483115">
        <ele>587.353060082490629</ele>
        <time>2017-07-22T10:37:14Z</time>
      </trkpt>
      <trkpt lat="47.645881930366158" lon="12.262683771550655">
        <ele>579.869008138199888</ele>
        <time>2017-07-22T10:37:26Z</time>
      </trkpt>
      <trkpt lat="47.645748574286699" lon="12.259642984718084">
        <ele>571.868667165854959</ele>
        <time>2017-07-22T10:37:38Z</time>
      </trkpt>
      <trkpt lat="47.645592503249645" lon="12.256859941408038">
        <ele>566.387677138795311</ele>
        <time>2017-07-22T10:37:48Z</time>
      </trkpt>
      <trkpt lat="47.64564304612577" lon="12.2541369125247">
        <ele>560.999824573037358</ele>
        <time>2017-07-22T10:37:58Z</time>
      </trkpt>
      <trkpt lat="47.645591581240296" lon="12.251424277201295">
        <ele>555.525076969110387</ele>
        <time>2017-07-22T10:38:08Z</time>
      </trkpt>
      <trkpt lat="47.64613757841289" lon="12.248646095395088">
        <ele>546.785331220851845</ele>
        <time>2017-07-22T10:38:21Z</time>
      </trkpt>
      <trkpt lat="47.646444439888" lon="12.245783004909754">
        <ele>536.816680461775604</ele>
        <time>2017-07-22T10:38:34Z</time>
      </trkpt>
      <trkpt lat="47.646438237279654" lon="12.242964087054133">
        <ele>528.179717581822388</ele>
        <time>2017-07-22T10:38:48Z</time>
      </trkpt>
      <trkpt lat="47.64670243486762" lon="12.240194035694003">
        <ele>523.468040692079057</ele>
        <time>2017-07-22T10:39:04Z</time>
      </trkpt>
      <trkpt lat="47.647500056773424" lon="12.237464552745223">
        <ele>524.501459667152858</ele>
        <time>2017-07-22T10:39:22Z</time>
      </trkpt>
      <trkpt lat="47.64775394462049" lon="12.234628032892942">
        <ele>519.485780281918551</ele>
        <time>2017-07-22T10:39:38Z</time>
      </trkpt>
      <trkpt lat="47.647687727585435" lon="12.231837948784232">
        <ele>511.282108106075782</ele>
        <time>2017-07-22T10:39:54Z</time>
      </trkpt>
      <trkpt lat="47.647562837228179" lon="12.229025484994054">
        <ele>509.813878787159808</ele>
        <time>2017-07-22T10:40:10Z</time>
      </trkpt>
      <trkpt lat="47.64797673560679" lon="12.226157113909721">
        <ele>512.646036467375211</ele>
        <time>2017-07-22T10:40:22Z</time>
      </trkpt>
      <trkpt lat="47.648471854627132" lon="12.223437102511525">
        <ele>511.037698241657324</ele>
        <time>2017-07-22T10:40:32Z</time>
      </trkpt>
      <trkpt lat="47.648945599794388" lon="12.22084223292768">
        <ele>502.556530413164182</ele>
        <time>2017-07-22T10:40:44Z</time>
      </trkpt>
      <trkpt lat="47.64942211098969" lon="12.218092801049352">
        <ele>495.349978216118416</ele>
        <time>2017-07-22T10:41:02Z</time>
      </trkpt>
      <trkpt lat="47.650291230529547" lon="12.215724410489202">
        <ele>489.67441591826929</ele>
        <time>2017-07-22T10:41:23Z</time>
      </trkpt>
      <trkpt lat="47.649889988824725" lon="12.213124511763453">
        <ele>486.713475414669972</ele>
        <time>2017-07-22T10:41:54Z</time>
      </trkpt>
      <trkpt lat="47.649409454315901" lon="12.210448672994971">
        <ele>480.712077693637809</ele>
        <time>2017-07-22T10:42:13Z</time>
      </trkpt>
      <trkpt lat="47.649128241464496" lon="12.207514923065901">
        <ele>473.139881314236618</ele>
        <time>2017-07-22T10:42:28Z</time>
      </trkpt>
      <trkpt lat="47.648674361407757" lon="12.204694412648678">
        <ele>471.183154838088626</ele>
        <time>2017-07-22T10:42:41Z</time>
      </trkpt>
      <trkpt lat="47.648188462480903" lon="12.201917236670852">
        <ele>472.858895554739206</ele>
        <time>2017-07-22T10:42:53Z</time>
      </trkpt>
      <trkpt lat="47.648176811635494" lon="12.199001759290695">
        <ele>471.075314376176493</ele>
        <time>2017-07-22T10:43:06Z</time>
      </trkpt>
      <trkpt lat="47.648494066670537" lon="12.196179907768965">
        <ele>466.405093873371186</ele>
        <time>2017-07-22T10:43:29Z</time>
      </trkpt>
      <trkpt lat="47.648611078038812" lon="12.197650680318475">
        <ele>465.077420315477696</ele>
        <time>2017-07-22T10:54:18Z</time>
      </trkpt>
      <trkpt lat="47.648127358406782" lon="12.195450766012073">
        <ele>470.208734096715489</ele>
        <time>2017-07-22T10:55:07Z</time>
      </trkpt>
      <trkpt lat="47.64735865406692" lon="12.192839216440916">
        <ele>471.598546876802914</ele>
        <time>2017-07-22T10:55:22Z</time>
      </trkpt>
      <trkpt lat="47.647002507001162" lon="12.189950812608004">
        <ele>475.499648946876107</ele>
        <time>2017-07-22T10:55:34Z</time>
      </trkpt>
      <trkpt lat="47.647012146189809" lon="12.18686493113637">
        <ele>476.535611584789422</ele>
        <time>2017-07-22T10:55:47Z</time>
      </trkpt>
      <trkpt lat="47.647175928577781" lon="12.183910645544529">
        <ele>473.62442912737049</ele>
        <time>2017-07-22T10:55:59Z</time>
      </trkpt>
      <trkpt lat="47.647137204185128" lon="12.181000029668212">
        <ele>471.97761662353372</ele>
        <time>2017-07-22T10:56:11Z</time>
      </trkpt>
      <trkpt lat="47.647509360685945" lon="12.178640691563487">
        <ele>467.051101795111492</ele>
        <time>2017-07-22T10:56:29Z</time>
      </trkpt>
      <trkpt lat="47.64946611598134" lon="12.178610768169165">
        <ele>466.16047395764781</ele>
        <time>2017-07-22T10:56:47Z</time>
      </trkpt>
      <trkpt lat="47.649643728509545" lon="12.176256710663438">
        <ele>470.190362813403794</ele>
        <time>2017-07-22T10:57:05Z</time>
      </trkpt>
      <trkpt lat="47.649517161771655" lon="12.173512727022171">
        <ele>475.705760491498381</ele>
        <time>2017-07-22T10:57:28Z</time>
      </trkpt>
      <trkpt lat="47.651120368391275" lon="12.172902608290315">
        <ele>480.659744688741114</ele>
        <time>2017-07-22T10:58:07Z</time>
      </trkpt>
      <trkpt lat="47.653017863631248" lon="12.172908391803503">
        <ele>483.446477951403494</ele>
        <time>2017-07-22T10:58:22Z</time>
      </trkpt>
      <trkpt lat="47.654975289478898" lon="12.172850808128715">
        <ele>488.327217891913222</ele>
        <time>2017-07-22T10:58:33Z</time>
      </trkpt>
      <trkpt lat="47.656934056431055" lon="12.17255593277514">
        <ele>489.240530996183224</ele>
        <time>2017-07-22T10:58:44Z</time>
      </trkpt>
      <trkpt lat="47.658720156177878" lon="12.172081265598536">
        <ele>488.722432564652877</ele>
        <time>2017-07-22T10:58:54Z</time>
      </trkpt>
      <trkpt lat="47.660651514306664" lon="12.171280374750495">
        <ele>484.436686150866819</ele>
        <time>2017-07-22T10:59:07Z</time>
      </trkpt>
      <trkpt lat="47.66177125275135" lon="12.16957675293088">
        <ele>480.594130593405112</ele>
        <time>2017-07-22T10:59:32Z</time>
      </trkpt>
      <trkpt lat="47.660883273929358" lon="12.166928658261895">
        <ele>484.741023813888489</ele>
        <time>2017-07-22T10:59:48Z</time>
      </trkpt>
      <trkpt lat="47.659908123314381" lon="12.164534367620945">
        <ele>489.727729269442875</ele>
        <time>2017-07-22T11:00:04Z</time>
      </trkpt>
      <trkpt lat="47.660434255376458" lon="12.161795329302549">
        <ele>496.973987994716879</ele>
        <time>2017-07-22T11:00:18Z</time>
      </trkpt>
      <trkpt lat="47.660968517884612" lon="12.159125357866287">
        <ele>505.963129803734091</ele>
        <time>2017-07-22T11:00:31Z</time>
      </trkpt>
      <trkpt lat="47.660882519558072" lon="12.156474580988288">
        <ele>512.573932595453584</ele>
        <time>2017-07-22T11:00:50Z</time>
      </trkpt>
      <trkpt lat="47.660774560645223" lon="12.154058665037155">
        <ele>526.935411347454306</ele>
        <time>2017-07-22T11:01:13Z</time>
      </trkpt>
      <trkpt lat="47.661019815132022" lon="12.151226000860333">
        <ele>549.203030851617882</ele>
        <time>2017-07-22T11:01:29Z</time>
      </trkpt>
      <trkpt lat="47.661685086786747" lon="12.148605650290847">
        <ele>573.49790964467411</ele>
        <time>2017-07-22T11:01:46Z</time>
      </trkpt>
      <trkpt lat="47.661621132865548" lon="12.14580450206995">
        <ele>597.671111657255324</ele>
        <time>2017-07-22T11:02:02Z</time>
      </trkpt>
      <trkpt lat="47.661894299089909" lon="12.14314685203135">
        <ele>624.83470845596139</ele>
        <time>2017-07-22T11:02:17Z</time>
      </trkpt>
      <trkpt lat="47.662256732583046" lon="12.140673436224461">
        <ele>647.06187379581479</ele>
        <time>2017-07-22T11:02:37Z</time>
      </trkpt>
      <trkpt lat="47.661655247211456" lon="12.138047972694039">
        <ele>658.61105976469662</ele>
        <time>2017-07-22T11:03:00Z</time>
      </trkpt>
      <trkpt lat="47.660502819344401" lon="12.135799108073115">
        <ele>659.396852677389006</ele>
        <time>2017-07-22T11:03:21Z</time>
      </trkpt>
      <trkpt lat="47.659456422552466" lon="12.134104035794735">
        <ele>669.750255578461747</ele>
        <time>2017-07-22T11:03:48Z</time>
      </trkpt>
      <trkpt lat="47.658115234225988" lon="12.132201008498669">
        <ele>677.0409321269575</ele>
        <time>2017-07-22T11:04:14Z</time>
      </trkpt>
      <trkpt lat="47.657752130180597" lon="12.129754833877087">
        <ele>676.690609676482723</ele>
        <time>2017-07-22T11:04:42Z</time>
      </trkpt>
      <trkpt lat="47.658348167315125" lon="12.127299439162016">
        <ele>689.74566437264491</ele>
        <time>2017-07-22T11:05:07Z</time>
      </trkpt>
      <trkpt lat="47.658066535368562" lon="12.124639106914401">
        <ele>695.771959726554087</ele>
        <time>2017-07-22T11:05:26Z</time>
      </trkpt>
      <trkpt lat="47.657906357198954" lon="12.121936026960611">
        <ele>698.950434709338651</ele>
        <time>2017-07-22T11:05:42Z</time>
      </trkpt>
      <trkpt lat="47.65843877568841" lon="12.119469400495291">
        <ele>702.0428962426098</ele>
        <time>2017-07-22T11:06:01Z</time>
      </trkpt>
      <trkpt lat="47.660239962860942" lon="12.119172429665923">
        <ele>698.783942506595736</ele>
        <time>2017-07-22T11:06:19Z</time>
      </trkpt>
      <trkpt lat="47.661498170346022" lon="12.116954829543829">
        <ele>694.519030541797292</ele>
        <time>2017-07-22T11:06:35Z</time>
      </trkpt>
      <trkpt lat="47.663076817989349" lon="12.115561254322529">
        <ele>696.69824098907884</ele>
        <time>2017-07-22T11:06:53Z</time>
      </trkpt>
      <trkpt lat="47.664941623806953" lon="12.115531330928206">
        <ele>698.101781412807554</ele>
        <time>2017-07-22T11:07:14Z</time>
      </trkpt>
      <trkpt lat="47.665768330916762" lon="12.113482709974051">
        <ele>702.131188239177391</ele>
        <time>2017-07-22T11:07:37Z</time>
      </trkpt>
      <trkpt lat="47.665338255465031" lon="12.110776109620929">
        <ele>699.862220713597026</ele>
        <time>2017-07-22T11:07:53Z</time>
      </trkpt>
      <trkpt lat="47.666585398837924" lon="12.106741983443499">
        <ele>701.340328633769218</ele>
        <time>2017-07-22T11:08:23Z</time>
      </trkpt>
      <trkpt lat="47.66749257221818" lon="12.104332018643618">
        <ele>705.260925837987543</ele>
        <time>2017-07-22T11:08:46Z</time>
      </trkpt>
      <trkpt lat="47.668254654854536" lon="12.101835887879133">
        <ele>709.76438675024076</ele>
        <time>2017-07-22T11:09:10Z</time>
      </trkpt>
      <trkpt lat="47.668850775808096" lon="12.099211513996124">
        <ele>716.996061957997085</ele>
        <time>2017-07-22T11:09:32Z</time>
      </trkpt>
      <trkpt lat="47.669234834611416" lon="12.096785958856344">
        <ele>725.557648245432802</ele>
        <time>2017-07-22T11:09:52Z</time>
      </trkpt>
      <trkpt lat="47.669199630618095" lon="12.09415839985013">
        <ele>730.327820041653922</ele>
        <time>2017-07-22T11:10:13Z</time>
      </trkpt>
      <trkpt lat="47.669553095474839" lon="12.091560428962111">
        <ele>732.62642038159845</ele>
        <time>2017-07-22T11:10:32Z</time>
      </trkpt>
      <trkpt lat="47.671095533296466" lon="12.090127291157842">
        <ele>732.10256110113778</ele>
        <time>2017-07-22T11:10:48Z</time>
      </trkpt>
      <trkpt lat="47.671808749437332" lon="12.087670806795359">
        <ele>728.780659212108731</ele>
        <time>2017-07-22T11:11:09Z</time>
      </trkpt>
      <trkpt lat="47.672575274482369" lon="12.085205353796482">
        <ele>736.63028901462576</ele>
        <time>2017-07-22T11:11:32Z</time>
      </trkpt>
      <trkpt lat="47.673474233597517" lon="12.084226012229919">
        <ele>755.396110472015494</ele>
        <time>2017-07-22T11:11:57Z</time>
      </trkpt>
      <trkpt lat="47.675217418000102" lon="12.084536142647266">
        <ele>765.02030567635984</ele>
        <time>2017-07-22T11:12:19Z</time>
      </trkpt>
      <trkpt lat="47.674228101968765" lon="12.083653695881367">
        <ele>779.56255548801596</ele>
        <time>2017-07-22T11:13:14Z</time>
      </trkpt>
      <trkpt lat="47.672614501789212" lon="12.081930376589298">
        <ele>788.47460878487334</ele>
        <time>2017-07-22T11:13:28Z</time>
      </trkpt>
      <trkpt lat="47.671564752236009" lon="12.079685954377055">
        <ele>806.266939348180813</ele>
        <time>2017-07-22T11:13:42Z</time>
      </trkpt>
      <trkpt lat="47.671131072565913" lon="12.077135508880019">
        <ele>818.210007132374699</ele>
        <time>2017-07-22T11:13:56Z</time>
      </trkpt>
      <trkpt lat="47.670385334640741" lon="12.074846662580967">
        <ele>831.266542299582625</ele>
        <time>2017-07-22T11:14:13Z</time>
      </trkpt>
      <trkpt lat="47.670927308499813" lon="12.074468387290835">
        <ele>844.830406174245468</ele>
        <time>2017-07-22T11:14:30Z</time>
      </trkpt>
      <trkpt lat="47.672260785475373" lon="12.076355321332812">
        <ele>854.173010882688345</ele>
        <time>2017-07-22T11:14:41Z</time>
      </trkpt>
      <trkpt lat="47.672961847856641" lon="12.076901569962502">
        <ele>865.260716949230755</ele>
        <time>2017-07-22T11:14:57Z</time>
      </trkpt>
      <trkpt lat="47.672061379998922" lon="12.074531419202685">
        <ele>880.810895641977595</ele>
        <time>2017-07-22T11:15:11Z</time>
      </trkpt>
      <trkpt lat="47.671648822724819" lon="12.071683080866933">
        <ele>902.038505025897848</ele>
        <time>2017-07-22T11:15:27Z</time>
      </trkpt>
      <trkpt lat="47.671844623982906" lon="12.069180831313133">
        <ele>920.982886472493192</ele>
        <time>2017-07-22T11:15:43Z</time>
      </trkpt>
      <trkpt lat="47.672774009406567" lon="12.071516616269946">
        <ele>932.633588989645432</ele>
        <time>2017-07-22T11:15:58Z</time>
      </trkpt>
      <trkpt lat="47.673621168360114" lon="12.069139173254371">
        <ele>959.288254705082522</ele>
        <time>2017-07-22T11:16:13Z</time>
      </trkpt>
      <trkpt lat="47.67490410245955" lon="12.067040596157312">
        <ele>979.562495537530822</ele>
        <time>2017-07-22T11:16:28Z</time>
      </trkpt>
      <trkpt lat="47.676131799817085" lon="12.065337393432856">
        <ele>988.483606141498967</ele>
        <time>2017-07-22T11:16:44Z</time>
      </trkpt>
      <trkpt lat="47.677827877923846" lon="12.063876679167151">
        <ele>988.579281232682888</ele>
        <time>2017-07-22T11:16:58Z</time>
      </trkpt>
      <trkpt lat="47.678921297192574" lon="12.061757734045386">
        <ele>983.700142648717247</ele>
        <time>2017-07-22T11:17:12Z</time>
      </trkpt>
      <trkpt lat="47.680493406951427" lon="12.060181349515915">
        <ele>978.523181818296734</ele>
        <time>2017-07-22T11:17:25Z</time>
      </trkpt>
      <trkpt lat="47.682337844744325" lon="12.058761706575751">
        <ele>970.519655026100395</ele>
        <time>2017-07-22T11:17:37Z</time>
      </trkpt>
      <trkpt lat="47.684212541207671" lon="12.057723188772798">
        <ele>970.423771650058256</ele>
        <time>2017-07-22T11:17:49Z</time>
      </trkpt>
      <trkpt lat="47.686118083074689" lon="12.057028580456972">
        <ele>976.588614331053805</ele>
        <time>2017-07-22T11:18:04Z</time>
      </trkpt>
      <trkpt lat="47.686145827174187" lon="12.054644012823701">
        <ele>979.598915589317812</ele>
        <time>2017-07-22T11:18:22Z</time>
      </trkpt>
      <trkpt lat="47.684297952800989" lon="12.054853141307831">
        <ele>983.766740694970622</ele>
        <time>2017-07-22T11:18:36Z</time>
      </trkpt>
      <trkpt lat="47.68232049420476" lon="12.05489806830883">
        <ele>992.422728495773754</ele>
        <time>2017-07-22T11:18:52Z</time>
      </trkpt>
      <trkpt lat="47.681035296991467" lon="12.053235769271851">
        <ele>1002.858543815030998</ele>
        <time>2017-07-22T11:19:06Z</time>
      </trkpt>
      <trkpt lat="47.681630747392774" lon="12.050421210005879">
        <ele>1005.288687862465963</ele>
        <time>2017-07-22T11:19:19Z</time>
      </trkpt>
      <trkpt lat="47.682467177510262" lon="12.047869507223368">
        <ele>1011.54853339015699</ele>
        <time>2017-07-22T11:19:33Z</time>
      </trkpt>
      <trkpt lat="47.683871313929558" lon="12.045928929001093">
        <ele>1023.705422188642046</ele>
        <time>2017-07-22T11:19:48Z</time>
      </trkpt>
      <trkpt lat="47.684405660256743" lon="12.043362306430936">
        <ele>1029.283620232776002</ele>
        <time>2017-07-22T11:20:04Z</time>
      </trkpt>
      <trkpt lat="47.685015946626663" lon="12.040940774604678">
        <ele>1035.060423308679901</ele>
        <time>2017-07-22T11:20:22Z</time>
      </trkpt>
      <trkpt lat="47.684440780431032" lon="12.038313047960401">
        <ele>1046.657958058608074</ele>
        <time>2017-07-22T11:20:41Z</time>
      </trkpt>
      <trkpt lat="47.683495637029409" lon="12.036584364250302">
        <ele>1062.775255509136969</ele>
        <time>2017-07-22T11:21:01Z</time>
      </trkpt>
      <trkpt lat="47.682857271283865" lon="12.034214716404676">
        <ele>1072.455069378072039</ele>
        <time>2017-07-22T11:21:17Z</time>
      </trkpt>
      <trkpt lat="47.680981736630201" lon="12.033809954300523">
        <ele>1082.442291639714085</ele>
        <time>2017-07-22T11:21:33Z</time>
      </trkpt>
      <trkpt lat="47.679196642711759" lon="12.034342959523201">
        <ele>1091.648872556416109</ele>
        <time>2017-07-22T11:21:48Z</time>
      </trkpt>
      <trkpt lat="47.678138930350542" lon="12.03449291177094">
        <ele>1093.023773575642963</ele>
        <time>2017-07-22T11:22:06Z</time>
      </trkpt>
      <trkpt lat="47.678384184837341" lon="12.032930189743638">
        <ele>1089.11076903571302</ele>
        <time>2017-07-22T11:22:12Z</time>
      </trkpt>
      <trkpt lat="47.679298650473356" lon="12.030421318486333">
        <ele>1073.513143026835905</ele>
        <time>2017-07-22T11:22:23Z</time>
      </trkpt>
      <trkpt lat="47.680178582668304" lon="12.027834160253406">
        <ele>1053.550786198818059</ele>
        <time>2017-07-22T11:22:42Z</time>
      </trkpt>
      <trkpt lat="47.680700104683638" lon="12.025077436119318">
        <ele>1034.008572565214081</ele>
        <time>2017-07-22T11:23:01Z</time>
      </trkpt>
      <trkpt lat="47.681795954704285" lon="12.022771239280701">
        <ele>1015.916515585030993</ele>
        <time>2017-07-22T11:23:17Z</time>
      </trkpt>
      <trkpt lat="47.681859908625484" lon="12.019872441887856">
        <ele>995.631800559572412</ele>
        <time>2017-07-22T11:23:34Z</time>
      </trkpt>
      <trkpt lat="47.682644706219435" lon="12.017443617805839">
        <ele>973.737475341146023</ele>
        <time>2017-07-22T11:23:50Z</time>
      </trkpt>
      <trkpt lat="47.681646589189768" lon="12.015486024320126">
        <ele>957.401187492721533</ele>
        <time>2017-07-22T11:24:08Z</time>
      </trkpt>
      <trkpt lat="47.680181935429573" lon="12.014984870329499">
        <ele>936.157272767717927</ele>
        <time>2017-07-22T11:24:26Z</time>
      </trkpt>
      <trkpt lat="47.681262698024511" lon="12.013816433027387">
        <ele>921.769752429841901</ele>
        <time>2017-07-22T11:24:48Z</time>
      </trkpt>
      <trkpt lat="47.681184075772762" lon="12.014046935364604">
        <ele>907.653457118487154</ele>
        <time>2017-07-22T11:25:19Z</time>
      </trkpt>
      <trkpt lat="47.679307200014591" lon="12.014590753242373">
        <ele>891.225832088562015</ele>
        <time>2017-07-22T11:25:33Z</time>
      </trkpt>
      <trkpt lat="47.678568083792925" lon="12.016647085547447">
        <ele>869.418993808821142</ele>
        <time>2017-07-22T11:25:53Z</time>
      </trkpt>
      <trkpt lat="47.678053434938192" lon="12.019311608746648">
        <ele>846.925735492471063</ele>
        <time>2017-07-22T11:26:13Z</time>
      </trkpt>
      <trkpt lat="47.67645844258368" lon="12.020729323849082">
        <ele>826.700336880447026</ele>
        <time>2017-07-22T11:26:37Z</time>
      </trkpt>
      <trkpt lat="47.674645101651549" lon="12.021174486726522">
        <ele>811.807217343056323</ele>
        <time>2017-07-22T11:26:55Z</time>
      </trkpt>
      <trkpt lat="47.672840394079685" lon="12.020253818482161">
        <ele>797.699480987774223</ele>
        <time>2017-07-22T11:27:12Z</time>
      </trkpt>
      <trkpt lat="47.671161917969584" lon="12.019072221592069">
        <ele>789.086933442567897</ele>
        <time>2017-07-22T11:27:27Z</time>
      </trkpt>
      <trkpt lat="47.671305080875754" lon="12.016260847449303">
        <ele>782.577408438248199</ele>
        <time>2017-07-22T11:27:45Z</time>
      </trkpt>
      <trkpt lat="47.671602722257376" lon="12.013482749462128">
        <ele>782.413299812025798</ele>
        <time>2017-07-22T11:28:02Z</time>
      </trkpt>
      <trkpt lat="47.672086609527469" lon="12.01084085740149">
        <ele>782.760279426314241</ele>
        <time>2017-07-22T11:28:16Z</time>
      </trkpt>
      <trkpt lat="47.673351103439927" lon="12.008841102942824">
        <ele>782.63995554388157</ele>
        <time>2017-07-22T11:28:30Z</time>
      </trkpt>
      <trkpt lat="47.67499253153801" lon="12.007261533290148">
        <ele>782.612168025401616</ele>
        <time>2017-07-22T11:28:43Z</time>
      </trkpt>
      <trkpt lat="47.676485432311893" lon="12.00557149015367">
        <ele>784.321861426499026</ele>
        <time>2017-07-22T11:28:53Z</time>
      </trkpt>
      <trkpt lat="47.677946398034692" lon="12.003893600776792">
        <ele>781.685598831513289</ele>
        <time>2017-07-22T11:29:03Z</time>
      </trkpt>
      <trkpt lat="47.679370483383536" lon="12.001869203522801">
        <ele>776.150992270482107</ele>
        <time>2017-07-22T11:29:16Z</time>
      </trkpt>
      <trkpt lat="47.680653082206845" lon="11.999464267864823">
        <ele>776.391722763117627</ele>
        <time>2017-07-22T11:29:29Z</time>
      </trkpt>
      <trkpt lat="47.681669890880585" lon="11.996903093531728">
        <ele>784.077545427219775</ele>
        <time>2017-07-22T11:29:38Z</time>
      </trkpt>
      <trkpt lat="47.682648645713925" lon="11.994375446811318">
        <ele>784.002013844360363</ele>
        <time>2017-07-22T11:29:46Z</time>
      </trkpt>
      <trkpt lat="47.68313605338335" lon="11.992894532158971">
        <ele>782.416125833508204</ele>
        <time>2017-07-22T11:29:51Z</time>
      </trkpt>
      <trkpt lat="47.683917246758938" lon="11.990133449435234">
        <ele>779.356240661752508</ele>
        <time>2017-07-22T11:30:01Z</time>
      </trkpt>
      <trkpt lat="47.684477157890797" lon="11.98733096010983">
        <ele>776.751482774054921</ele>
        <time>2017-07-22T11:30:14Z</time>
      </trkpt>
      <trkpt lat="47.68546094186604" lon="11.985026523470879">
        <ele>779.320541554701549</ele>
        <time>2017-07-22T11:30:30Z</time>
      </trkpt>
      <trkpt lat="47.686575567349792" lon="11.982392342761159">
        <ele>782.89114610983961</ele>
        <time>2017-07-22T11:30:41Z</time>
      </trkpt>
      <trkpt lat="47.687646187841892" lon="11.979835527017713">
        <ele>780.866710261505773</ele>
        <time>2017-07-22T11:30:51Z</time>
      </trkpt>
      <trkpt lat="47.688464680686593" lon="11.977341156452894">
        <ele>778.195240515621208</ele>
        <time>2017-07-22T11:30:59Z</time>
      </trkpt>
      <trkpt lat="47.688946891576052" lon="11.975878430530429">
        <ele>774.669593676419481</ele>
        <time>2017-07-22T11:31:04Z</time>
      </trkpt>
      <trkpt lat="47.689805952832103" lon="11.973491851240396">
        <ele>773.936632945236965</ele>
        <time>2017-07-22T11:31:12Z</time>
      </trkpt>
      <trkpt lat="47.690269891172647" lon="11.972019234672189">
        <ele>773.408712190807591</ele>
        <time>2017-07-22T11:31:17Z</time>
      </trkpt>
      <trkpt lat="47.691044127568603" lon="11.969331996515393">
        <ele>773.763383366347512</ele>
        <time>2017-07-22T11:31:26Z</time>
      </trkpt>
      <trkpt lat="47.691178489476442" lon="11.967711271718144">
        <ele>771.61795183892707</ele>
        <time>2017-07-22T11:31:31Z</time>
      </trkpt>
      <trkpt lat="47.69116030074656" lon="11.96487944573164">
        <ele>768.193539272027124</ele>
        <time>2017-07-22T11:31:41Z</time>
      </trkpt>
      <trkpt lat="47.691442435607314" lon="11.961839580908418">
        <ele>764.018636720546056</ele>
        <time>2017-07-22T11:31:53Z</time>
      </trkpt>
      <trkpt lat="47.692288924008608" lon="11.959268935024738">
        <ele>764.041375541926072</ele>
        <time>2017-07-22T11:32:03Z</time>
      </trkpt>
      <trkpt lat="47.693216800689697" lon="11.956454878672957">
        <ele>764.247477562193581</ele>
        <time>2017-07-22T11:32:13Z</time>
      </trkpt>
      <trkpt lat="47.694287840276957" lon="11.953637721017003">
        <ele>763.045776628777048</ele>
        <time>2017-07-22T11:32:23Z</time>
      </trkpt>
      <trkpt lat="47.69512259401381" lon="11.951244939118624">
        <ele>761.484921747380213</ele>
        <time>2017-07-22T11:32:31Z</time>
      </trkpt>
      <trkpt lat="47.696006130427122" lon="11.948880655691028">
        <ele>760.751064987383188</ele>
        <time>2017-07-22T11:32:39Z</time>
      </trkpt>
      <trkpt lat="47.697235252708197" lon="11.946509163826704">
        <ele>760.394184026109656</ele>
        <time>2017-07-22T11:32:48Z</time>
      </trkpt>
      <trkpt lat="47.697941176593304" lon="11.945251626893878">
        <ele>759.666712000083066</ele>
        <time>2017-07-22T11:32:53Z</time>
      </trkpt>
      <trkpt lat="47.699126712977886" lon="11.942614428699017">
        <ele>760.608374950919483</ele>
        <time>2017-07-22T11:33:03Z</time>
      </trkpt>
      <trkpt lat="47.699561985209584" lon="11.941142734140158">
        <ele>761.052470322412205</ele>
        <time>2017-07-22T11:33:08Z</time>
      </trkpt>
      <trkpt lat="47.70013052970171" lon="11.938206721097231">
        <ele>758.719881596438199</ele>
        <time>2017-07-22T11:33:18Z</time>
      </trkpt>
      <trkpt lat="47.700625732541084" lon="11.935310941189528">
        <ele>757.138782784481009</ele>
        <time>2017-07-22T11:33:28Z</time>
      </trkpt>
      <trkpt lat="47.701025465503335" lon="11.932457573711872">
        <ele>754.961638980714497</ele>
        <time>2017-07-22T11:33:39Z</time>
      </trkpt>
      <trkpt lat="47.701735915616155" lon="11.929954150691628">
        <ele>756.32079512146629</ele>
        <time>2017-07-22T11:34:00Z</time>
      </trkpt>
      <trkpt lat="47.702572261914611" lon="11.927459947764874">
        <ele>760.728863590703213</ele>
        <time>2017-07-22T11:34:25Z</time>
      </trkpt>
      <trkpt lat="47.703160084784031" lon="11.924871699884534">
        <ele>761.33527463320047</ele>
        <time>2017-07-22T11:34:51Z</time>
      </trkpt>
      <trkpt lat="47.703658137470484" lon="11.922139953821898">
        <ele>762.429851868947935</ele>
        <time>2017-07-22T11:35:15Z</time>
      </trkpt>
      <trkpt lat="47.704365570098162" lon="11.920901192352176">
        <ele>767.190773055614045</ele>
        <time>2017-07-22T11:35:20Z</time>
      </trkpt>
      <trkpt lat="47.705395622178912" lon="11.918215211480856">
        <ele>765.515861923803072</ele>
        <time>2017-07-22T11:35:30Z</time>
      </trkpt>
      <trkpt lat="47.705836426466703" lon="11.915613552555442">
        <ele>768.981969580565533</ele>
        <time>2017-07-22T11:35:38Z</time>
      </trkpt>
      <trkpt lat="47.70583919249475" lon="11.913952091708779">
        <ele>768.611807279183722</ele>
        <time>2017-07-22T11:35:43Z</time>
      </trkpt>
      <trkpt lat="47.705677337944508" lon="11.912367912009358">
        <ele>768.301574247726762</ele>
        <time>2017-07-22T11:35:48Z</time>
      </trkpt>
      <trkpt lat="47.705302834510803" lon="11.910843746736646">
        <ele>768.601641011119114</ele>
        <time>2017-07-22T11:35:53Z</time>
      </trkpt>
      <trkpt lat="47.704890696331859" lon="11.909344391897321">
        <ele>770.103890481513304</ele>
        <time>2017-07-22T11:35:58Z</time>
      </trkpt>
      <trkpt lat="47.704691123217344" lon="11.907761804759502">
        <ele>770.741571983500194</ele>
        <time>2017-07-22T11:36:03Z</time>
      </trkpt>
      <trkpt lat="47.704729847609997" lon="11.906107384711504">
        <ele>771.163447339807362</ele>
        <time>2017-07-22T11:36:08Z</time>
      </trkpt>
      <trkpt lat="47.704466991126537" lon="11.902945814654231">
        <ele>771.796500363030987</ele>
        <time>2017-07-22T11:36:18Z</time>
      </trkpt>
      <trkpt lat="47.704023253172636" lon="11.900000749155879">
        <ele>774.369004802855898</ele>
        <time>2017-07-22T11:36:27Z</time>
      </trkpt>
      <trkpt lat="47.703805910423398" lon="11.898409193381667">
        <ele>773.939765074096385</ele>
        <time>2017-07-22T11:36:32Z</time>
      </trkpt>
      <trkpt lat="47.703330153599381" lon="11.895611817017198">
        <ele>771.858146281730455</ele>
        <time>2017-07-22T11:36:42Z</time>
      </trkpt>
      <trkpt lat="47.702531777322292" lon="11.892876382917166">
        <ele>772.122728704263295</ele>
        <time>2017-07-22T11:36:53Z</time>
      </trkpt>
      <trkpt lat="47.701802216470242" lon="11.890290565788746">
        <ele>763.001387165735423</ele>
        <time>2017-07-22T11:37:07Z</time>
      </trkpt>
      <trkpt lat="47.701760893687606" lon="11.887382799759507">
        <ele>765.409196549666831</ele>
        <time>2017-07-22T11:37:31Z</time>
      </trkpt>
      <trkpt lat="47.702470337972045" lon="11.884761862456799">
        <ele>770.117696205738071</ele>
        <time>2017-07-22T11:37:50Z</time>
      </trkpt>
      <trkpt lat="47.703004600480199" lon="11.882000863552094">
        <ele>778.455157977381646</ele>
        <time>2017-07-22T11:38:05Z</time>
      </trkpt>
      <trkpt lat="47.703490080311894" lon="11.87922184355557">
        <ele>787.879830693987969</ele>
        <time>2017-07-22T11:38:19Z</time>
      </trkpt>
      <trkpt lat="47.704652398824692" lon="11.87715788371861">
        <ele>790.987343124322933</ele>
        <time>2017-07-22T11:38:35Z</time>
      </trkpt>
      <trkpt lat="47.706076819449663" lon="11.875399863347411">
        <ele>790.307062407316607</ele>
        <time>2017-07-22T11:38:53Z</time>
      </trkpt>
      <trkpt lat="47.707681702449918" lon="11.873868238180876">
        <ele>787.177235859339362</ele>
        <time>2017-07-22T11:39:09Z</time>
      </trkpt>
      <trkpt lat="47.709402088075876" lon="11.87268353998661">
        <ele>780.088105518028783</ele>
        <time>2017-07-22T11:39:25Z</time>
      </trkpt>
      <trkpt lat="47.710917703807354" lon="11.870908001437783">
        <ele>775.175207672936381</ele>
        <time>2017-07-22T11:39:39Z</time>
      </trkpt>
      <trkpt lat="47.712494088336825" lon="11.869634538888931">
        <ele>769.003755467175438</ele>
        <time>2017-07-22T11:39:55Z</time>
      </trkpt>
      <trkpt lat="47.714205756783485" lon="11.870960723608732">
        <ele>765.77601626858393</ele>
        <time>2017-07-22T11:40:11Z</time>
      </trkpt>
      <trkpt lat="47.715692203491926" lon="11.869407137855887">
        <ele>767.851280484262361</ele>
        <time>2017-07-22T11:40:26Z</time>
      </trkpt>
      <trkpt lat="47.717558350414038" lon="11.869692709296942">
        <ele>770.02134574426475</ele>
        <time>2017-07-22T11:40:39Z</time>
      </trkpt>
      <trkpt lat="47.719509908929467" lon="11.869769487529993">
        <ele>766.882210055337623</ele>
        <time>2017-07-22T11:40:54Z</time>
      </trkpt>
      <trkpt lat="47.721266252920032" lon="11.869106562808156">
        <ele>765.496557921910721</ele>
        <time>2017-07-22T11:41:10Z</time>
      </trkpt>
      <trkpt lat="47.723071882501245" lon="11.86973906122148">
        <ele>764.854931822370645</ele>
        <time>2017-07-22T11:41:27Z</time>
      </trkpt>
      <trkpt lat="47.724892264232039" lon="11.869467487558722">
        <ele>766.567114373653567</ele>
        <time>2017-07-22T11:41:41Z</time>
      </trkpt>
      <trkpt lat="47.726665791124105" lon="11.869218545034528">
        <ele>764.963023419540946</ele>
        <time>2017-07-22T11:41:58Z</time>
      </trkpt>
      <trkpt lat="47.7284792996943" lon="11.868526954203844">
        <ele>767.102373346676245</ele>
        <time>2017-07-22T11:42:17Z</time>
      </trkpt>
      <trkpt lat="47.730218544602394" lon="11.868182457983494">
        <ele>764.495941049689918</ele>
        <time>2017-07-22T11:42:33Z</time>
      </trkpt>
      <trkpt lat="47.731960890814662" lon="11.867962349206209">
        <ele>764.473813132301757</ele>
        <time>2017-07-22T11:42:52Z</time>
      </trkpt>
      <trkpt lat="47.733016675338149" lon="11.865741731598973">
        <ele>766.969354151240964</ele>
        <time>2017-07-22T11:43:13Z</time>
      </trkpt>
      <trkpt lat="47.734546959400177" lon="11.864396771416068">
        <ele>772.449662343810814</ele>
        <time>2017-07-22T11:43:45Z</time>
      </trkpt>
      <trkpt lat="47.735648844391108" lon="11.862271036952734">
        <ele>770.752473839467029</ele>
        <time>2017-07-22T11:44:20Z</time>
      </trkpt>
      <trkpt lat="47.736673196777701" lon="11.860005492344499">
        <ele>771.912340694238992</ele>
        <time>2017-07-22T11:45:12Z</time>
      </trkpt>
      <trkpt lat="47.737524379044771" lon="11.857556384056807">
        <ele>770.970431694732611</ele>
        <time>2017-07-22T11:45:39Z</time>
      </trkpt>
      <trkpt lat="47.737617501989007" lon="11.854888759553432">
        <ele>770.089456597335584</ele>
        <time>2017-07-22T11:46:02Z</time>
      </trkpt>
      <trkpt lat="47.738734390586615" lon="11.852767802774906">
        <ele>769.477725146877901</ele>
        <time>2017-07-22T11:46:19Z</time>
      </trkpt>
      <trkpt lat="47.740106508135796" lon="11.850810879841447">
        <ele>771.675999839078486</ele>
        <time>2017-07-22T11:46:32Z</time>
      </trkpt>
      <trkpt lat="47.741718180477619" lon="11.849117986857891">
        <ele>775.565766959496386</ele>
        <time>2017-07-22T11:46:45Z</time>
      </trkpt>
      <trkpt lat="47.743279729038477" lon="11.847218479961157">
        <ele>771.232063801980644</ele>
        <time>2017-07-22T11:46:57Z</time>
      </trkpt>
      <trkpt lat="47.744822837412357" lon="11.845737984403968">
        <ele>763.378705388900471</ele>
        <time>2017-07-22T11:47:08Z</time>
      </trkpt>
      <trkpt lat="47.746298052370548" lon="11.844068979844451">
        <ele>755.147238867936039</ele>
        <time>2017-07-22T11:47:24Z</time>
      </trkpt>
      <trkpt lat="47.74788374081254" lon="11.842472897842526">
        <ele>752.41663570118601</ele>
        <time>2017-07-22T11:47:43Z</time>
      </trkpt>
      <trkpt lat="47.749556265771389" lon="11.841134475544095">
        <ele>751.230371283234945</ele>
        <time>2017-07-22T11:47:59Z</time>
      </trkpt>
      <trkpt lat="47.751292325556278" lon="11.839856822043657">
        <ele>749.778962419552727</ele>
        <time>2017-07-22T11:48:13Z</time>
      </trkpt>
      <trkpt lat="47.752936687320471" lon="11.838514627888799">
        <ele>747.981986098360494</ele>
        <time>2017-07-22T11:48:29Z</time>
      </trkpt>
      <trkpt lat="47.754519777372479" lon="11.836872026324272">
        <ele>748.576773123745966</ele>
        <time>2017-07-22T11:48:44Z</time>
      </trkpt>
      <trkpt lat="47.755600959062576" lon="11.834503803402185">
        <ele>745.277804394703708</ele>
        <time>2017-07-22T11:48:59Z</time>
      </trkpt>
      <trkpt lat="47.755666086450219" lon="11.834065848961473">
        <ele>746.289130160443051</ele>
        <time>2017-07-22T11:49:20Z</time>
      </trkpt>
      <trkpt lat="47.753981491550803" lon="11.835853038355708">
        <ele>745.277955563930618</ele>
        <time>2017-07-22T11:49:34Z</time>
      </trkpt>
      <trkpt lat="47.752401251345873" lon="11.837232112884521">
        <ele>741.574892359850082</ele>
        <time>2017-07-22T11:49:52Z</time>
      </trkpt>
      <trkpt lat="47.750978842377663" lon="11.835295557975769">
        <ele>744.946916310442475</ele>
        <time>2017-07-22T11:50:07Z</time>
      </trkpt>
      <trkpt lat="47.751222671940923" lon="11.832532379776239">
        <ele>745.777595671307836</ele>
        <time>2017-07-22T11:50:21Z</time>
      </trkpt>
      <trkpt lat="47.751972516998649" lon="11.829882860183716">
        <ele>746.443254895745554</ele>
        <time>2017-07-22T11:50:34Z</time>
      </trkpt>
      <trkpt lat="47.752755554392934" lon="11.827239207923412">
        <ele>744.066955637673345</ele>
        <time>2017-07-22T11:50:47Z</time>
      </trkpt>
      <trkpt lat="47.753460556268692" lon="11.824532020837069">
        <ele>744.261065320668536</ele>
        <time>2017-07-22T11:51:01Z</time>
      </trkpt>
      <trkpt lat="47.753431219607592" lon="11.821673288941383">
        <ele>747.070554185735091</ele>
        <time>2017-07-22T11:51:14Z</time>
      </trkpt>
      <trkpt lat="47.754022562876344" lon="11.819177996367216">
        <ele>753.104982460084102</ele>
        <time>2017-07-22T11:51:24Z</time>
      </trkpt>
      <trkpt lat="47.754697054624557" lon="11.816553203389049">
        <ele>755.017553080247239</ele>
        <time>2017-07-22T11:51:35Z</time>
      </trkpt>
      <trkpt lat="47.754361107945442" lon="11.813915837556124">
        <ele>751.828729132535386</ele>
        <time>2017-07-22T11:51:44Z</time>
      </trkpt>
      <trkpt lat="47.753353770822287" lon="11.811351645737886">
        <ele>750.938049043106616</ele>
        <time>2017-07-22T11:51:54Z</time>
      </trkpt>
      <trkpt lat="47.753031738102436" lon="11.808233577758074">
        <ele>752.217482929277821</ele>
        <time>2017-07-22T11:52:04Z</time>
      </trkpt>
      <trkpt lat="47.752431258559227" lon="11.805358333513141">
        <ele>756.957336787189433</ele>
        <time>2017-07-22T11:52:14Z</time>
      </trkpt>
      <trkpt lat="47.751447055488825" lon="11.802554503083229">
        <ele>761.477441869448512</ele>
        <time>2017-07-22T11:52:24Z</time>
      </trkpt>
      <trkpt lat="47.751403134316206" lon="11.799499718472362">
        <ele>765.555876206625157</ele>
        <time>2017-07-22T11:52:34Z</time>
      </trkpt>
      <trkpt lat="47.751130387187004" lon="11.796376872807741">
        <ele>773.550288417132151</ele>
        <time>2017-07-22T11:52:44Z</time>
      </trkpt>
      <trkpt lat="47.750846156850457" lon="11.793443793430924">
        <ele>782.043258804339075</ele>
        <time>2017-07-22T11:52:53Z</time>
      </trkpt>
      <trkpt lat="47.750865183770657" lon="11.790572153404355">
        <ele>788.32705261390106</ele>
        <time>2017-07-22T11:53:04Z</time>
      </trkpt>
      <trkpt lat="47.750862585380673" lon="11.787674445658922">
        <ele>800.443681959923993</ele>
        <time>2017-07-22T11:53:14Z</time>
      </trkpt>
      <trkpt lat="47.750746915116906" lon="11.784526705741882">
        <ele>810.898021941277534</ele>
        <time>2017-07-22T11:53:24Z</time>
      </trkpt>
      <trkpt lat="47.750105280429125" lon="11.781980702653527">
        <ele>808.937144697345616</ele>
        <time>2017-07-22T11:53:34Z</time>
      </trkpt>
      <trkpt lat="47.748908763751388" lon="11.779512148350477">
        <ele>800.862983233281057</ele>
        <time>2017-07-22T11:53:44Z</time>
      </trkpt>
      <trkpt lat="47.748409369960427" lon="11.776484856382012">
        <ele>791.003897249577335</ele>
        <time>2017-07-22T11:53:54Z</time>
      </trkpt>
      <trkpt lat="47.747622895985842" lon="11.773544233292341">
        <ele>786.095622030079198</ele>
        <time>2017-07-22T11:54:04Z</time>
      </trkpt>
      <trkpt lat="47.747406978160143" lon="11.770705701783299">
        <ele>782.487522767333076</ele>
        <time>2017-07-22T11:54:13Z</time>
      </trkpt>
      <trkpt lat="47.74724411778152" lon="11.769050862640142">
        <ele>779.679224619948172</ele>
        <time>2017-07-22T11:54:18Z</time>
      </trkpt>
      <trkpt lat="47.746713627129793" lon="11.766478791832924">
        <ele>774.070076819330552</ele>
        <time>2017-07-22T11:54:26Z</time>
      </trkpt>
      <trkpt lat="47.745656836777925" lon="11.763909319415689">
        <ele>767.021897686537727</ele>
        <time>2017-07-22T11:54:36Z</time>
      </trkpt>
      <trkpt lat="47.745427843183279" lon="11.761321993544698">
        <ele>762.577378321758488</ele>
        <time>2017-07-22T11:54:51Z</time>
      </trkpt>
      <trkpt lat="47.746051289141178" lon="11.758473655208945">
        <ele>764.141267762830921</ele>
        <time>2017-07-22T11:55:05Z</time>
      </trkpt>
      <trkpt lat="47.746388996019959" lon="11.755660939961672">
        <ele>763.738930070188189</ele>
        <time>2017-07-22T11:55:15Z</time>
      </trkpt>
      <trkpt lat="47.746504163369536" lon="11.754024205729365">
        <ele>761.131840243152055</ele>
        <time>2017-07-22T11:55:20Z</time>
      </trkpt>
      <trkpt lat="47.746512880548835" lon="11.751227248460054">
        <ele>762.070150536509118</ele>
        <time>2017-07-22T11:55:31Z</time>
      </trkpt>
      <trkpt lat="47.745802262797952" lon="11.748323924839497">
        <ele>771.274260703890832</ele>
        <time>2017-07-22T11:55:43Z</time>
      </trkpt>
      <trkpt lat="47.745198849588633" lon="11.745561668649316">
        <ele>770.699847291119795</ele>
        <time>2017-07-22T11:55:54Z</time>
      </trkpt>
      <trkpt lat="47.744773048907518" lon="11.742575615644455">
        <ele>755.595696451776803</ele>
        <time>2017-07-22T11:56:08Z</time>
      </trkpt>
      <trkpt lat="47.743478883057833" lon="11.740618441253901">
        <ele>742.456567474925691</ele>
        <time>2017-07-22T11:56:19Z</time>
      </trkpt>
      <trkpt lat="47.742763319984078" lon="11.738100098446012">
        <ele>720.756408628186364</ele>
        <time>2017-07-22T11:56:39Z</time>
      </trkpt>
      <trkpt lat="47.741201100870967" lon="11.737514957785606">
        <ele>721.02258682044544</ele>
        <time>2017-07-22T11:56:59Z</time>
      </trkpt>
      <trkpt lat="47.739323638379574" lon="11.737290909513831">
        <ele>721.940840325323052</ele>
        <time>2017-07-22T11:57:11Z</time>
      </trkpt>
      <trkpt lat="47.737450199201703" lon="11.737379757687449">
        <ele>723.795380830895738</ele>
        <time>2017-07-22T11:57:23Z</time>
      </trkpt>
      <trkpt lat="47.735575418919325" lon="11.738133039325476">
        <ele>721.911898202678117</ele>
        <time>2017-07-22T11:57:35Z</time>
      </trkpt>
      <trkpt lat="47.733673565089703" lon="11.738442918285728">
        <ele>718.926848802143695</ele>
        <time>2017-07-22T11:57:50Z</time>
      </trkpt>
      <trkpt lat="47.73232483305037" lon="11.740234130993485">
        <ele>721.414157259818239</ele>
        <time>2017-07-22T11:58:03Z</time>
      </trkpt>
      <trkpt lat="47.730569327250123" lon="11.741422098129988">
        <ele>720.928366623037391</ele>
        <time>2017-07-22T11:58:17Z</time>
      </trkpt>
      <trkpt lat="47.728763949126005" lon="11.742602773010731">
        <ele>718.199385151146771</ele>
        <time>2017-07-22T11:58:34Z</time>
      </trkpt>
      <trkpt lat="47.727195108309388" lon="11.743751093745232">
        <ele>715.085561670566904</ele>
        <time>2017-07-22T11:58:57Z</time>
      </trkpt>
      <trkpt lat="47.72537212818861" lon="11.744479481130838">
        <ele>717.462461363646298</ele>
        <time>2017-07-22T11:59:14Z</time>
      </trkpt>
      <trkpt lat="47.723974697291851" lon="11.746416203677654">
        <ele>718.40293238636491</ele>
        <time>2017-07-22T11:59:30Z</time>
      </trkpt>
      <trkpt lat="47.722431337460876" lon="11.74798496067524">
        <ele>718.63852580106834</ele>
        <time>2017-07-22T11:59:43Z</time>
      </trkpt>
      <trkpt lat="47.72065001539886" lon="11.74908734858036">
        <ele>718.212260520316931</ele>
        <time>2017-07-22T11:59:59Z</time>
      </trkpt>
      <trkpt lat="47.719112187623978" lon="11.750595504418015">
        <ele>716.040733694683809</ele>
        <time>2017-07-22T12:00:17Z</time>
      </trkpt>
      <trkpt lat="47.717632530257106" lon="11.752261742949486">
        <ele>716.256765239764491</ele>
        <time>2017-07-22T12:00:36Z</time>
      </trkpt>
      <trkpt lat="47.715969812124968" lon="11.753663616254926">
        <ele>717.280678812812312</ele>
        <time>2017-07-22T12:00:55Z</time>
      </trkpt>
      <trkpt lat="47.714059744030237" lon="11.753390114754438">
        <ele>715.979241598959675</ele>
        <time>2017-07-22T12:01:15Z</time>
      </trkpt>
      <trkpt lat="47.712396858260036" lon="11.752195861190557">
        <ele>714.925383823540074</ele>
        <time>2017-07-22T12:01:36Z</time>
      </trkpt>
      <trkpt lat="47.710657948628068" lon="11.75279164686799">
        <ele>716.631508782655601</ele>
        <time>2017-07-22T12:02:09Z</time>
      </trkpt>
      <trkpt lat="47.708923062309623" lon="11.753205042332411">
        <ele>713.726021348866425</ele>
        <time>2017-07-22T12:03:31Z</time>
      </trkpt>
      <trkpt lat="47.708383100107312" lon="11.754301562905312">
        <ele>714.261692560323922</ele>
        <time>2017-07-22T12:04:17Z</time>
      </trkpt>
    </trkseg>
  </trk>

</gpx>
